Observation data for Vigo Park on 06/15/2019      Previous  Date  Next       Current Mesonet Observations  Soil Data  Daily Summary Page  Observations in Plain Language
KVP1 150500Z 17018KT 25/17 A2982 RMK A01 T02480170  RH  062%=      5-min Rain = 0
KVP1 150501Z 17020G26KT 25/17 A2982 RMK A01 T02480171  RH  062%=      5-min Rain = 0
KVP1 150502Z 18021KT 25/17 A2982 RMK A01 T02480171  RH  062%=      5-min Rain = 0
KVP1 150503Z 17021KT 25/17 A2982 RMK A01 T02490171  RH  062%=      5-min Rain = 0
KVP1 150504Z 18020KT 25/17 A2982 RMK A01 T02490171  RH  062%=      5-min Rain = 0
KVP1 150505Z 18019KT 25/17 A2982 RMK A01 T02490172  RH  062%=      5-min Rain = 0
KVP1 150506Z 17020KT 25/17 A2982 RMK A01 T02480172  RH  062%=      5-min Rain = 0
KVP1 150507Z 18021G26KT 25/17 A2982 RMK A01 T02480172  RH  063%=      5-min Rain = 0
KVP1 150508Z 18022G27KT 25/17 A2982 RMK A01 T02480172  RH  063%=      5-min Rain = 0
KVP1 150509Z 18018G24KT 25/17 A2982 RMK A01 T02480172  RH  063%=      5-min Rain = 0
KVP1 150510Z 18019KT 25/17 A2982 RMK A01 T02470172  RH  063%=      5-min Rain = 0
KVP1 150511Z 18018KT 25/17 A2982 RMK A01 T02460173  RH  064%=      5-min Rain = 0
KVP1 150512Z 18020KT 25/17 A2982 RMK A01 T02450173  RH  064%=      5-min Rain = 0
KVP1 150513Z 18022KT 25/17 A2982 RMK A01 T02450172  RH  064%=      5-min Rain = 0
KVP1 150514Z 18018G24KT 25/17 A2982 RMK A01 T02460173  RH  064%=      5-min Rain = 0
KVP1 150515Z 18019G25KT 25/17 A2982 RMK A01 T02460173  RH  064%=      5-min Rain = 0
KVP1 150516Z 18018G24KT 25/17 A2982 RMK A01 T02450173  RH  064%=      5-min Rain = 0
KVP1 150517Z 18023G29KT 25/17 A2982 RMK A01 T02450173  RH  064%=      5-min Rain = 0
KVP1 150518Z 18022KT 25/17 A2982 RMK A01 T02450172  RH  064%=      5-min Rain = 0
KVP1 150519Z 18019KT 25/17 A2982 RMK A01 T02460173  RH  064%=      5-min Rain = 0
KVP1 150520Z 18019KT 25/17 A2982 RMK A01 T02460173  RH  064%=      5-min Rain = 0
KVP1 150521Z 18021KT 25/17 A2982 RMK A01 T02450173  RH  064%=      5-min Rain = 0
KVP1 150522Z 18022G27KT 24/17 A2982 RMK A01 T02440173  RH  064%=      5-min Rain = 0
KVP1 150523Z 18021KT 25/17 A2982 RMK A01 T02450173  RH  064%=      5-min Rain = 0
KVP1 150524Z 18020G25KT 25/17 A2982 RMK A01 T02450173  RH  064%=      5-min Rain = 0
KVP1 150525Z 18017KT 25/17 A2982 RMK A01 T02450174  RH  064%=      5-min Rain = 0
KVP1 150526Z 19020G25KT 24/17 A2982 RMK A01 T02430174  RH  065%=      5-min Rain = 0
KVP1 150527Z 18022G27KT 24/17 A2982 RMK A01 T02430173  RH  065%=      5-min Rain = 0
KVP1 150528Z 18017G22KT 24/17 A2982 RMK A01 T02440173  RH  065%=      5-min Rain = 0
KVP1 150529Z 18017G22KT 24/17 A2982 RMK A01 T02430174  RH  065%=      5-min Rain = 0
KVP1 150530Z 18020KT 24/17 A2982 RMK A01 T02420174  RH  065%=      5-min Rain = 0
KVP1 150531Z 19017KT 24/17 A2982 RMK A01 T02420174  RH  066%=      5-min Rain = 0
KVP1 150532Z 18019G24KT 24/17 A2982 RMK A01 T02410173  RH  066%=      5-min Rain = 0
KVP1 150533Z 19018G23KT 24/17 A2982 RMK A01 T02410173  RH  066%=      5-min Rain = 0
KVP1 150534Z 19019G24KT 24/17 A2982 RMK A01 T02410174  RH  066%=      5-min Rain = 0
KVP1 150535Z 19016G21KT 24/17 A2982 RMK A01 T02410174  RH  066%=      5-min Rain = 0
KVP1 150536Z 19021G26KT 24/17 A2982 RMK A01 T02400174  RH  066%=      5-min Rain = 0
KVP1 150537Z 19018KT 24/17 A2982 RMK A01 T02400173  RH  066%=      5-min Rain = 0
KVP1 150538Z 19018KT 24/17 A2982 RMK A01 T02400174  RH  066%=      5-min Rain = 0
KVP1 150539Z 18020KT 24/17 A2982 RMK A01 T02400174  RH  067%=      5-min Rain = 0
KVP1 150540Z 19018KT 24/17 A2982 RMK A01 T02400174  RH  067%=      5-min Rain = 0
KVP1 150541Z 19018G23KT 24/17 A2982 RMK A01 T02400174  RH  067%=      5-min Rain = 0
KVP1 150542Z 19017KT 24/18 A2982 RMK A01 T02400175  RH  067%=      5-min Rain = 0
KVP1 150543Z 19017G22KT 24/17 A2982 RMK A01 T02390174  RH  067%=      5-min Rain = 0
KVP1 150544Z 19017KT 24/18 A2982 RMK A01 T02390175  RH  067%=      5-min Rain = 0
KVP1 150545Z 19019KT 24/18 A2982 RMK A01 T02380175  RH  067%=      5-min Rain = 0
KVP1 150546Z 19018KT 24/17 A2982 RMK A01 T02380174  RH  067%=      5-min Rain = 0
KVP1 150547Z 19016KT 24/18 A2982 RMK A01 T02380175  RH  067%=      5-min Rain = 0
KVP1 150548Z 19017G22KT 24/17 A2982 RMK A01 T02370174  RH  068%=      5-min Rain = 0
KVP1 150549Z 19018KT 24/17 A2982 RMK A01 T02370174  RH  068%=      5-min Rain = 0
KVP1 150550Z 19018KT 24/17 A2982 RMK A01 T02370174  RH  068%=      5-min Rain = 0
KVP1 150551Z 19019KT 24/17 A2982 RMK A01 T02370174  RH  068%=      5-min Rain = 0
KVP1 150552Z 19015KT 24/18 A2982 RMK A01 T02360175  RH  068%=      5-min Rain = 0
KVP1 150553Z 19018KT 24/18 A2982 RMK A01 T02350175  RH  069%=      5-min Rain = 0
KVP1 150554Z 19019KT 24/18 A2982 RMK A01 T02350175  RH  069%=      5-min Rain = 0
KVP1 150555Z 18017KT 24/18 A2982 RMK A01 T02350175  RH  069%=      5-min Rain = 0
KVP1 150556Z 19019KT 24/18 A2982 RMK A01 T02350175  RH  069%=      5-min Rain = 0
KVP1 150557Z 19018KT 24/18 A2982 RMK A01 T02350175  RH  069%=      5-min Rain = 0
KVP1 150558Z 19019KT 24/18 A2982 RMK A01 T02350175  RH  069%=      5-min Rain = 0
KVP1 150559Z 19020KT 24/18 A2982 RMK A01 T02360175  RH  069%=      5-min Rain = 0
KVP1 150600Z 19018KT 24/17 A2982 RMK A01 T02360174  RH  068%=      5-min Rain = 0
KVP1 150601Z 19018G23KT 24/18 A2982 RMK A01 T02360175  RH  069%=      5-min Rain = 0
KVP1 150602Z 19018G23KT 24/18 A2982 RMK A01 T02350175  RH  069%=      5-min Rain = 0
KVP1 150603Z 19017KT 24/18 A2982 RMK A01 T02350175  RH  069%=      5-min Rain = 0
KVP1 150604Z 19017KT 23/18 A2982 RMK A01 T02340175  RH  069%=      5-min Rain = 0
KVP1 150605Z 19018KT 23/18 A2982 RMK A01 T02340175  RH  070%=      5-min Rain = 0
KVP1 150606Z 19017KT 23/18 A2982 RMK A01 T02330175  RH  070%=      5-min Rain = 0
KVP1 150607Z 19017KT 23/18 A2982 RMK A01 T02330175  RH  070%=      5-min Rain = 0
KVP1 150608Z 19016G21KT 23/18 A2982 RMK A01 T02330175  RH  070%=      5-min Rain = 0
KVP1 150609Z 19016G21KT 23/18 A2982 RMK A01 T02330176  RH  070%=      5-min Rain = 0
KVP1 150610Z 19018KT 23/18 A2982 RMK A01 T02320175  RH  070%=      5-min Rain = 0
KVP1 150611Z 19020KT 23/18 A2982 RMK A01 T02320175  RH  070%=      5-min Rain = 0
KVP1 150612Z 19018KT 23/18 A2982 RMK A01 T02330175  RH  070%=      5-min Rain = 0
KVP1 150613Z 19017KT 23/18 A2982 RMK A01 T02330175  RH  070%=      5-min Rain = 0
KVP1 150614Z 19017KT 23/18 A2982 RMK A01 T02320176  RH  070%=      5-min Rain = 0
KVP1 150615Z 19017G22KT 23/18 A2982 RMK A01 T02310176  RH  071%=      5-min Rain = 0
KVP1 150616Z 19014KT 23/18 A2982 RMK A01 T02310175  RH  071%=      5-min Rain = 0
KVP1 150617Z 19018KT 23/18 A2982 RMK A01 T02300176  RH  071%=      5-min Rain = 0
KVP1 150618Z 19017G22KT 23/18 A2982 RMK A01 T02300175  RH  071%=      5-min Rain = 0
KVP1 150619Z 19017KT 23/18 A2982 RMK A01 T02310176  RH  071%=      5-min Rain = 0
KVP1 150620Z 19018KT 23/18 A2982 RMK A01 T02310176  RH  071%=      5-min Rain = 0
KVP1 150621Z 19019KT 23/18 A2982 RMK A01 T02310176  RH  071%=      5-min Rain = 0
KVP1 150622Z 19018G24KT 23/18 A2982 RMK A01 T02310176  RH  071%=      5-min Rain = 0
KVP1 150623Z 19017KT 23/18 A2982 RMK A01 T02310176  RH  071%=      5-min Rain = 0
KVP1 150624Z 19019G24KT 23/18 A2981 RMK A01 T02310176  RH  071%=      5-min Rain = 0
KVP1 150625Z 19017KT 23/18 A2981 RMK A01 T02310176  RH  071%=      5-min Rain = 0
KVP1 150626Z 19017G23KT 23/18 A2981 RMK A01 T02310176  RH  071%=      5-min Rain = 0
KVP1 150627Z 19018KT 23/18 A2981 RMK A01 T02300176  RH  072%=      5-min Rain = 0
KVP1 150628Z 19016KT 23/18 A2981 RMK A01 T02300177  RH  072%=      5-min Rain = 0
KVP1 150629Z 19018KT 23/18 A2981 RMK A01 T02290177  RH  072%=      5-min Rain = 0
KVP1 150630Z 19016KT 23/18 A2981 RMK A01 T02290177  RH  072%=      5-min Rain = 0
KVP1 150631Z 19017KT 23/18 A2981 RMK A01 T02290177  RH  072%=      5-min Rain = 0
KVP1 150632Z 19019G25KT 23/18 A2981 RMK A01 T02280177  RH  073%=      5-min Rain = 0
KVP1 150633Z 19018KT 23/18 A2981 RMK A01 T02290177  RH  072%=      5-min Rain = 0
KVP1 150634Z 19016G21KT 23/18 A2981 RMK A01 T02290177  RH  073%=      5-min Rain = 0
KVP1 150635Z 19019G25KT 23/18 A2981 RMK A01 T02280177  RH  073%=      5-min Rain = 0
KVP1 150636Z 19019G24KT 23/18 A2981 RMK A01 T02280178  RH  073%=      5-min Rain = 0
KVP1 150637Z 19019G24KT 23/18 A2981 RMK A01 T02280177  RH  073%=      5-min Rain = 0
KVP1 150638Z 19019KT 23/18 A2981 RMK A01 T02290178  RH  073%=      5-min Rain = 0
KVP1 150639Z 19021G26KT 23/18 A2981 RMK A01 T02290178  RH  073%=      5-min Rain = 0
KVP1 150640Z 19019KT 23/18 A2981 RMK A01 T02290178  RH  073%=      5-min Rain = 0
KVP1 150641Z 19019KT 23/18 A2981 RMK A01 T02300178  RH  073%=      5-min Rain = 0
KVP1 150642Z 19018KT 23/18 A2981 RMK A01 T02300179  RH  073%=      5-min Rain = 0
KVP1 150643Z 20017KT 23/18 A2981 RMK A01 T02290179  RH  073%=      5-min Rain = 0
KVP1 150644Z 19017KT 23/18 A2981 RMK A01 T02280179  RH  073%=      5-min Rain = 0
KVP1 150645Z 19020KT 23/18 A2981 RMK A01 T02280179  RH  074%=      5-min Rain = 0
KVP1 150646Z 19019KT 23/18 A2981 RMK A01 T02290179  RH  073%=      5-min Rain = 0
KVP1 150647Z 20020G26KT 23/18 A2981 RMK A01 T02290179  RH  073%=      5-min Rain = 0
KVP1 150648Z 19016G21KT 23/18 A2982 RMK A01 T02300179  RH  073%=      5-min Rain = 0
KVP1 150649Z 19016KT 23/18 A2981 RMK A01 T02300180  RH  073%=      5-min Rain = 0
KVP1 150650Z 19015G20KT 23/18 A2982 RMK A01 T02280180  RH  074%=      5-min Rain = 0
KVP1 150651Z 19017KT 23/18 A2981 RMK A01 T02270179  RH  075%=      5-min Rain = 0
KVP1 150652Z 19016KT 23/18 A2981 RMK A01 T02260179  RH  075%=      5-min Rain = 0
KVP1 150653Z 19017KT 23/18 A2981 RMK A01 T02270180  RH  075%=      5-min Rain = 0
KVP1 150654Z 19017KT 23/18 A2981 RMK A01 T02260180  RH  075%=      5-min Rain = 0
KVP1 150655Z 19016KT 23/18 A2982 RMK A01 T02260180  RH  075%=      5-min Rain = 0
KVP1 150656Z 19018KT 23/18 A2981 RMK A01 T02250180  RH  075%=      5-min Rain = 0
KVP1 150657Z 19018KT 23/18 A2982 RMK A01 T02260180  RH  075%=      5-min Rain = 0
KVP1 150658Z 19018KT 23/18 A2982 RMK A01 T02260180  RH  075%=      5-min Rain = 0
KVP1 150659Z 19017KT 23/18 A2982 RMK A01 T02260180  RH  075%=      5-min Rain = 0
KVP1 150700Z 19019KT 23/18 A2981 RMK A01 T02260180  RH  075%=      5-min Rain = 0
KVP1 150701Z 19017KT 23/18 A2982 RMK A01 T02260180  RH  075%=      5-min Rain = 0
KVP1 150702Z 19018KT 23/18 A2982 RMK A01 T02260181  RH  075%=      5-min Rain = 0
KVP1 150703Z 19015KT 23/18 A2982 RMK A01 T02250180  RH  076%=      5-min Rain = 0
KVP1 150704Z 19018KT 23/18 A2982 RMK A01 T02250180  RH  076%=      5-min Rain = 0
KVP1 150705Z 19018KT 23/18 A2982 RMK A01 T02250180  RH  076%=      5-min Rain = 0
KVP1 150706Z 19017KT 22/18 A2981 RMK A01 T02240180  RH  076%=      5-min Rain = 0
KVP1 150707Z 19016KT 23/18 A2982 RMK A01 T02250180  RH  076%=      5-min Rain = 0
KVP1 150708Z 19017KT 22/18 A2981 RMK A01 T02240181  RH  076%=      5-min Rain = 0
KVP1 150709Z 19017KT 22/18 A2981 RMK A01 T02240181  RH  076%=      5-min Rain = 0
KVP1 150710Z 19017KT 22/18 A2981 RMK A01 T02240181  RH  076%=      5-min Rain = 0
KVP1 150711Z 19016G21KT 22/18 A2981 RMK A01 T02240181  RH  077%=      5-min Rain = 0
KVP1 150712Z 19018G23KT 22/18 A2981 RMK A01 T02240181  RH  077%=      5-min Rain = 0
KVP1 150713Z 19018G23KT 22/18 A2981 RMK A01 T02240181  RH  076%=      5-min Rain = 0
KVP1 150714Z 19016G21KT 22/18 A2981 RMK A01 T02240181  RH  076%=      5-min Rain = 0
KVP1 150715Z 19017KT 22/18 A2981 RMK A01 T02240181  RH  077%=      5-min Rain = 0
KVP1 150716Z 19016G21KT 22/18 A2981 RMK A01 T02230181  RH  077%=      5-min Rain = 0
KVP1 150717Z 19016KT 22/18 A2981 RMK A01 T02230181  RH  077%=      5-min Rain = 0
KVP1 150718Z 19019KT 22/18 A2981 RMK A01 T02230181  RH  077%=      5-min Rain = 0
KVP1 150719Z 19016G21KT 22/18 A2981 RMK A01 T02230181  RH  077%=      5-min Rain = 0
KVP1 150720Z 19017KT 22/18 A2981 RMK A01 T02230181  RH  077%=      5-min Rain = 0
KVP1 150721Z 19018G23KT 22/18 A2981 RMK A01 T02220181  RH  077%=      5-min Rain = 0
KVP1 150722Z 19016KT 22/18 A2981 RMK A01 T02220181  RH  077%=      5-min Rain = 0
KVP1 150723Z 19017G22KT 22/18 A2981 RMK A01 T02220181  RH  077%=      5-min Rain = 0
KVP1 150724Z 19018G23KT 22/18 A2981 RMK A01 T02220181  RH  078%=      5-min Rain = 0
KVP1 150725Z 19018KT 22/18 A2981 RMK A01 T02220181  RH  077%=      5-min Rain = 0
KVP1 150726Z 19014KT 22/18 A2981 RMK A01 T02230182  RH  077%=      5-min Rain = 0
KVP1 150727Z 19016KT 22/18 A2981 RMK A01 T02220182  RH  078%=      5-min Rain = 0
KVP1 150728Z 19017KT 22/18 A2981 RMK A01 T02220181  RH  078%=      5-min Rain = 0
KVP1 150729Z 19016G21KT 22/18 A2981 RMK A01 T02220182  RH  078%=      5-min Rain = 0
KVP1 150730Z 19016KT 22/18 A2981 RMK A01 T02220182  RH  078%=      5-min Rain = 0
KVP1 150731Z 19015KT 22/18 A2982 RMK A01 T02220182  RH  078%=      5-min Rain = 0
KVP1 150732Z 19014KT 22/18 A2982 RMK A01 T02210182  RH  078%=      5-min Rain = 0
KVP1 150733Z 19015KT 22/18 A2982 RMK A01 T02200181  RH  079%=      5-min Rain = 0
KVP1 150734Z 19015G20KT 22/18 A2982 RMK A01 T02200181  RH  079%=      5-min Rain = 0
KVP1 150735Z 19016KT 22/18 A2982 RMK A01 T02200181  RH  079%=      5-min Rain = 0
KVP1 150736Z 19016KT 22/18 A2982 RMK A01 T02190181  RH  079%=      5-min Rain = 0
KVP1 150737Z 18015KT 22/18 A2981 RMK A01 T02200182  RH  079%=      5-min Rain = 0
KVP1 150738Z 19013KT 22/18 A2982 RMK A01 T02190182  RH  079%=      5-min Rain = 0
KVP1 150739Z 19016G21KT 22/18 A2981 RMK A01 T02190182  RH  079%=      5-min Rain = 0
KVP1 150740Z 19017KT 22/18 A2982 RMK A01 T02180181  RH  079%=      5-min Rain = 0
KVP1 150741Z 18016KT 22/18 A2981 RMK A01 T02190181  RH  079%=      5-min Rain = 0
KVP1 150742Z 19015KT 22/18 A2982 RMK A01 T02200182  RH  079%=      5-min Rain = 0
KVP1 150743Z 19017KT 22/18 A2982 RMK A01 T02190182  RH  079%=      5-min Rain = 0
KVP1 150744Z 19015KT 22/18 A2982 RMK A01 T02190182  RH  079%=      5-min Rain = 0
KVP1 150745Z 19015KT 22/18 A2982 RMK A01 T02190182  RH  080%=      5-min Rain = 0
KVP1 150746Z 19015KT 22/18 A2982 RMK A01 T02180182  RH  080%=      5-min Rain = 0
KVP1 150747Z 19014KT 22/18 A2982 RMK A01 T02170182  RH  080%=      5-min Rain = 0
KVP1 150748Z 19013KT 22/18 A2981 RMK A01 T02170182  RH  080%=      5-min Rain = 0
KVP1 150749Z 19015KT 22/18 A2981 RMK A01 T02160181  RH  081%=      5-min Rain = 0
KVP1 150750Z 20014KT 22/18 A2981 RMK A01 T02160182  RH  081%=      5-min Rain = 0
KVP1 150751Z 19014KT 22/18 A2981 RMK A01 T02160181  RH  081%=      5-min Rain = 0
KVP1 150752Z 19015KT 22/18 A2981 RMK A01 T02160182  RH  081%=      5-min Rain = 0
KVP1 150753Z 19014KT 22/18 A2981 RMK A01 T02160182  RH  081%=      5-min Rain = 0
KVP1 150754Z 19015KT 22/18 A2981 RMK A01 T02150182  RH  081%=      5-min Rain = 0
KVP1 150755Z 19015KT 22/18 A2981 RMK A01 T02150182  RH  081%=      5-min Rain = 0
KVP1 150756Z 19015KT 22/18 A2981 RMK A01 T02150182  RH  081%=      5-min Rain = 0
KVP1 150757Z 19015KT 22/18 A2981 RMK A01 T02150181  RH  081%=      5-min Rain = 0
KVP1 150758Z 19016KT 22/18 A2981 RMK A01 T02150182  RH  081%=      5-min Rain = 0
KVP1 150759Z 19015KT 22/18 A2981 RMK A01 T02150182  RH  081%=      5-min Rain = 0
KVP1 150800Z 19015KT 22/18 A2981 RMK A01 T02160182  RH  081%=      5-min Rain = 0
KVP1 150801Z 19015KT 22/18 A2981 RMK A01 T02150182  RH  081%=      5-min Rain = 0
KVP1 150802Z 19013KT 22/18 A2981 RMK A01 T02150182  RH  081%=      5-min Rain = 0
KVP1 150803Z 19012KT 22/18 A2981 RMK A01 T02150182  RH  082%=      5-min Rain = 0
KVP1 150804Z 19016KT 21/18 A2981 RMK A01 T02140182  RH  082%=      5-min Rain = 0
KVP1 150805Z 19015KT 21/18 A2981 RMK A01 T02130182  RH  082%=      5-min Rain = 0
KVP1 150806Z 19015KT 21/18 A2981 RMK A01 T02130182  RH  082%=      5-min Rain = 0
KVP1 150807Z 19015KT 21/18 A2981 RMK A01 T02130182  RH  082%=      5-min Rain = 0
KVP1 150808Z 19015KT 21/18 A2981 RMK A01 T02140182  RH  082%=      5-min Rain = 0
KVP1 150809Z 19014KT 21/18 A2981 RMK A01 T02130182  RH  082%=      5-min Rain = 0
KVP1 150810Z 18015KT 21/18 A2981 RMK A01 T02130182  RH  082%=      5-min Rain = 0
KVP1 150811Z 19013KT 21/18 A2981 RMK A01 T02130182  RH  083%=      5-min Rain = 0
KVP1 150812Z 19014KT 21/18 A2981 RMK A01 T02120182  RH  083%=      5-min Rain = 0
KVP1 150813Z 18013KT 21/18 A2981 RMK A01 T02120182  RH  083%=      5-min Rain = 0
KVP1 150814Z 19013KT 21/18 A2981 RMK A01 T02120182  RH  083%=      5-min Rain = 0
KVP1 150815Z 18013KT 21/18 A2981 RMK A01 T02110182  RH  084%=      5-min Rain = 0
KVP1 150816Z 19013KT 21/18 A2981 RMK A01 T02100182  RH  084%=      5-min Rain = 0
KVP1 150817Z 19014KT 21/18 A2981 RMK A01 T02100182  RH  084%=      5-min Rain = 0
KVP1 150818Z 19013KT 21/18 A2981 RMK A01 T02100182  RH  084%=      5-min Rain = 0
KVP1 150819Z 19014KT 21/18 A2981 RMK A01 T02090182  RH  084%=      5-min Rain = 0
KVP1 150820Z 19013KT 21/18 A2981 RMK A01 T02090182  RH  085%=      5-min Rain = 0
KVP1 150821Z 19014KT 21/18 A2981 RMK A01 T02090182  RH  085%=      5-min Rain = 0
KVP1 150822Z 19015KT 21/18 A2981 RMK A01 T02080182  RH  085%=      5-min Rain = 0
KVP1 150823Z 19014KT 21/18 A2981 RMK A01 T02090182  RH  085%=      5-min Rain = 0
KVP1 150824Z 19015KT 21/18 A2981 RMK A01 T02090182  RH  084%=      5-min Rain = 0
KVP1 150825Z 19014KT 21/18 A2981 RMK A01 T02100182  RH  084%=      5-min Rain = 0
KVP1 150826Z 19012KT 21/18 A2981 RMK A01 T02090182  RH  084%=      5-min Rain = 0
KVP1 150827Z 19014KT 21/18 A2981 RMK A01 T02090182  RH  085%=      5-min Rain = 0
KVP1 150828Z 19014KT 21/18 A2981 RMK A01 T02080182  RH  085%=      5-min Rain = 0
KVP1 150829Z 19013KT 21/18 A2981 RMK A01 T02080182  RH  085%=      5-min Rain = 0
KVP1 150830Z 19013KT 21/18 A2981 RMK A01 T02080182  RH  085%=      5-min Rain = 0
KVP1 150831Z 19014KT 21/18 A298 RMK A01 T02070182  RH  085%=      5-min Rain = 0
KVP1 150832Z 19015KT 21/18 A298 RMK A01 T02070182  RH  085%=      5-min Rain = 0
KVP1 150833Z 19013KT 21/18 A298 RMK A01 T02070182  RH  085%=      5-min Rain = 0
KVP1 150834Z 19013KT 21/18 A298 RMK A01 T02070182  RH  085%=      5-min Rain = 0
KVP1 150835Z 19014KT 21/18 A298 RMK A01 T02070182  RH  085%=      5-min Rain = 0
KVP1 150836Z 19014KT 21/18 A298 RMK A01 T02070182  RH  085%=      5-min Rain = 0
KVP1 150837Z 19013KT 21/18 A298 RMK A01 T02070182  RH  086%=      5-min Rain = 0
KVP1 150838Z 19012KT 21/18 A298 RMK A01 T02060182  RH  086%=      5-min Rain = 0
KVP1 150839Z 19014KT 21/18 A298 RMK A01 T02050182  RH  087%=      5-min Rain = 0
KVP1 150840Z 19013KT 20/18 A298 RMK A01 T02040182  RH  087%=      5-min Rain = 0
KVP1 150841Z 19013KT 20/18 A298 RMK A01 T02040182  RH  087%=      5-min Rain = 0
KVP1 150842Z 19013KT 20/18 A298 RMK A01 T02040182  RH  087%=      5-min Rain = 0
KVP1 150843Z 19014KT 20/18 A298 RMK A01 T02040182  RH  087%=      5-min Rain = 0
KVP1 150844Z 19012KT 20/18 A298 RMK A01 T02040181  RH  087%=      5-min Rain = 0
KVP1 150845Z 19013KT 20/18 A298 RMK A01 T02040182  RH  087%=      5-min Rain = 0
KVP1 150846Z 19012KT 20/18 A298 RMK A01 T02030181  RH  087%=      5-min Rain = 0
KVP1 150847Z 19013KT 20/18 A298 RMK A01 T02030182  RH  088%=      5-min Rain = 0
KVP1 150848Z 19014KT 20/18 A298 RMK A01 T02030182  RH  087%=      5-min Rain = 0
KVP1 150849Z 19012KT 20/18 A298 RMK A01 T02030181  RH  087%=      5-min Rain = 0
KVP1 150850Z 19014KT 20/18 A298 RMK A01 T02040182  RH  087%=      5-min Rain = 0
KVP1 150851Z 19013KT 20/18 A298 RMK A01 T02030182  RH  087%=      5-min Rain = 0
KVP1 150852Z 19012KT 20/18 A298 RMK A01 T02030181  RH  087%=      5-min Rain = 0
KVP1 150853Z 19012KT 20/18 A298 RMK A01 T02020181  RH  088%=      5-min Rain = 0
KVP1 150854Z 19014KT 20/18 A298 RMK A01 T02020181  RH  088%=      5-min Rain = 0
KVP1 150855Z 19012KT 20/18 A298 RMK A01 T02010181  RH  088%=      5-min Rain = 0
KVP1 150856Z 19013KT 20/18 A298 RMK A01 T02010181  RH  088%=      5-min Rain = 0
KVP1 150857Z 19014KT 20/18 A298 RMK A01 T02010181  RH  088%=      5-min Rain = 0
KVP1 150858Z 19014KT 20/18 A298 RMK A01 T02020181  RH  088%=      5-min Rain = 0
KVP1 150859Z 19013KT 20/18 A298 RMK A01 T02020181  RH  088%=      5-min Rain = 0
KVP1 150900Z 19014KT 20/18 A298 RMK A01 T02020182  RH  088%=      5-min Rain = 0
KVP1 150901Z 19013KT 20/18 A298 RMK A01 T02020181  RH  088%=      5-min Rain = 0
KVP1 150902Z 19013KT 20/18 A298 RMK A01 T02020181  RH  088%=      5-min Rain = 0
KVP1 150903Z 19012KT 20/18 A298 RMK A01 T02020181  RH  088%=      5-min Rain = 0
KVP1 150904Z 20013KT 20/18 A298 RMK A01 T02010181  RH  088%=      5-min Rain = 0
KVP1 150905Z 19014KT 20/18 A298 RMK A01 T02010181  RH  088%=      5-min Rain = 0
KVP1 150906Z 19012KT 20/18 A298 RMK A01 T02010181  RH  088%=      5-min Rain = 0
KVP1 150907Z 19013KT 20/18 A298 RMK A01 T02000181  RH  089%=      5-min Rain = 0
KVP1 150908Z 19013KT 20/18 A298 RMK A01 T02000181  RH  089%=      5-min Rain = 0
KVP1 150909Z 20013KT 20/18 A298 RMK A01 T02010181  RH  088%=      5-min Rain = 0
KVP1 150910Z 19013KT 20/18 A298 RMK A01 T02010181  RH  088%=      5-min Rain = 0
KVP1 150911Z 19012KT 20/18 A298 RMK A01 T02000181  RH  089%=      5-min Rain = 0
KVP1 150912Z 20013KT 20/18 A298 RMK A01 T02000181  RH  089%=      5-min Rain = 0
KVP1 150913Z 20013KT 20/18 A298 RMK A01 T02000180  RH  089%=      5-min Rain = 0
KVP1 150914Z 19012KT 20/18 A298 RMK A01 T02000180  RH  089%=      5-min Rain = 0
KVP1 150915Z 19013KT 20/18 A298 RMK A01 T02000180  RH  088%=      5-min Rain = 0
KVP1 150916Z 19013KT 20/18 A298 RMK A01 T02000180  RH  089%=      5-min Rain = 0
KVP1 150917Z 19013KT 20/18 A298 RMK A01 T02000180  RH  089%=      5-min Rain = 0
KVP1 150918Z 19011KT 20/18 A298 RMK A01 T02000180  RH  089%=      5-min Rain = 0
KVP1 150919Z 19012KT 20/18 A298 RMK A01 T02000181  RH  089%=      5-min Rain = 0
KVP1 150920Z 19013KT 20/18 A298 RMK A01 T01990181  RH  089%=      5-min Rain = 0
KVP1 150921Z 19013KT 20/18 A298 RMK A01 T01990181  RH  089%=      5-min Rain = 0
KVP1 150922Z 19014KT 20/18 A298 RMK A01 T01990180  RH  089%=      5-min Rain = 0
KVP1 150923Z 20014KT 20/18 A298 RMK A01 T01990180  RH  089%=      5-min Rain = 0
KVP1 150924Z 19013KT 20/18 A298 RMK A01 T01990180  RH  089%=      5-min Rain = 0
KVP1 150925Z 19015KT 20/18 A298 RMK A01 T01990180  RH  089%=      5-min Rain = 0
KVP1 150926Z 19015KT 20/18 A298 RMK A01 T01990180  RH  089%=      5-min Rain = 0
KVP1 150927Z 19012KT 20/18 A298 RMK A01 T02000180  RH  088%=      5-min Rain = 0
KVP1 150928Z 20014KT 20/18 A298 RMK A01 T02000180  RH  088%=      5-min Rain = 0
KVP1 150929Z 20012KT 20/18 A298 RMK A01 T02000180  RH  088%=      5-min Rain = 0
KVP1 150930Z 20013KT 20/18 A298 RMK A01 T01990180  RH  089%=      5-min Rain = 0
KVP1 150931Z 20012KT 20/18 A298 RMK A01 T01990180  RH  089%=      5-min Rain = 0
KVP1 150932Z 20013KT 20/18 A298 RMK A01 T01980180  RH  089%=      5-min Rain = 0
KVP1 150933Z 20014KT 20/18 A298 RMK A01 T01980179  RH  089%=      5-min Rain = 0
KVP1 150934Z 20014KT 20/18 A298 RMK A01 T01980179  RH  089%=      5-min Rain = 0
KVP1 150935Z 20014KT 20/18 A298 RMK A01 T01990179  RH  089%=      5-min Rain = 0
KVP1 150936Z 20015KT 20/18 A298 RMK A01 T01990179  RH  088%=      5-min Rain = 0
KVP1 150937Z 20014KT 20/18 A298 RMK A01 T02000179  RH  088%=      5-min Rain = 0
KVP1 150938Z 20013KT 20/18 A298 RMK A01 T02000180  RH  088%=      5-min Rain = 0
KVP1 150939Z 20015KT 20/18 A298 RMK A01 T01990179  RH  088%=      5-min Rain = 0
KVP1 150940Z 20013G18KT 20/18 A298 RMK A01 T01990179  RH  088%=      5-min Rain = 0
KVP1 150941Z 20013KT 20/18 A298 RMK A01 T01990179  RH  088%=      5-min Rain = 0
KVP1 150942Z 20012KT 20/18 A298 RMK A01 T01980179  RH  088%=      5-min Rain = 0
KVP1 150943Z 20013KT 20/18 A298 RMK A01 T01980179  RH  089%=      5-min Rain = 0
KVP1 150944Z 20012KT 20/18 A298 RMK A01 T01970179  RH  089%=      5-min Rain = 0
KVP1 150945Z 20012KT 20/18 A2981 RMK A01 T01980179  RH  089%=      5-min Rain = 0
KVP1 150946Z 20013KT 20/18 A2981 RMK A01 T01970179  RH  089%=      5-min Rain = 0
KVP1 150947Z 20012KT 20/18 A2981 RMK A01 T01970179  RH  089%=      5-min Rain = 0
KVP1 150948Z 20013KT 20/18 A298 RMK A01 T01970179  RH  089%=      5-min Rain = 0
KVP1 150949Z 20014KT 20/18 A298 RMK A01 T01970179  RH  089%=      5-min Rain = 0
KVP1 150950Z 20013KT 20/18 A298 RMK A01 T01970178  RH  089%=      5-min Rain = 0
KVP1 150951Z 20012KT 20/18 A2981 RMK A01 T01970178  RH  089%=      5-min Rain = 0
KVP1 150952Z 20013KT 20/18 A2981 RMK A01 T01970178  RH  089%=      5-min Rain = 0
KVP1 150953Z 21013KT 20/18 A2981 RMK A01 T01970178  RH  089%=      5-min Rain = 0
KVP1 150954Z 21012KT 20/18 A2981 RMK A01 T01970178  RH  089%=      5-min Rain = 0
KVP1 150955Z 20013KT 20/18 A2981 RMK A01 T01970178  RH  089%=      5-min Rain = 0
KVP1 150956Z 20012KT 20/18 A2981 RMK A01 T01970178  RH  089%=      5-min Rain = 0
KVP1 150957Z 20011KT 20/18 A2981 RMK A01 T01970178  RH  089%=      5-min Rain = 0
KVP1 150958Z 21011KT 20/18 A2981 RMK A01 T01970178  RH  089%=      5-min Rain = 0
KVP1 150959Z 21012KT 20/18 A2981 RMK A01 T01970178  RH  089%=      5-min Rain = 0
KVP1 151000Z 21012KT 20/18 A2981 RMK A01 T01970178  RH  089%=      5-min Rain = 0
KVP1 151001Z 20010KT 20/18 A2981 RMK A01 T01970178  RH  089%=      5-min Rain = 0
KVP1 151002Z 21012KT 20/18 A2981 RMK A01 T01960177  RH  089%=      5-min Rain = 0
KVP1 151003Z 21011KT 20/18 A2981 RMK A01 T01960178  RH  089%=      5-min Rain = 0
KVP1 151004Z 21012KT 20/18 A2981 RMK A01 T01950177  RH  089%=      5-min Rain = 0
KVP1 151005Z 21011KT 20/18 A2981 RMK A01 T01950178  RH  089%=      5-min Rain = 0
KVP1 151006Z 22012KT 20/18 A2981 RMK A01 T01950177  RH  089%=      5-min Rain = 0
KVP1 151007Z 21012KT 20/18 A2981 RMK A01 T01950177  RH  089%=      5-min Rain = 0
KVP1 151008Z 21010KT 20/18 A2981 RMK A01 T01950177  RH  089%=      5-min Rain = 0
KVP1 151009Z 21012KT 20/18 A2981 RMK A01 T01950177  RH  089%=      5-min Rain = 0
KVP1 151010Z 21011KT 20/18 A2981 RMK A01 T01950177  RH  089%=      5-min Rain = 0
KVP1 151011Z 21011KT 20/18 A2981 RMK A01 T01950177  RH  089%=      5-min Rain = 0
KVP1 151012Z 22011KT 20/18 A2981 RMK A01 T01950176  RH  089%=      5-min Rain = 0
KVP1 151013Z 22011KT 20/18 A2982 RMK A01 T01950176  RH  089%=      5-min Rain = 0
KVP1 151014Z 22010KT 20/18 A2982 RMK A01 T01950176  RH  089%=      5-min Rain = 0
KVP1 151015Z 22010KT 19/18 A2982 RMK A01 T01940176  RH  089%=      5-min Rain = 0
KVP1 151016Z 22010KT 19/18 A2982 RMK A01 T01930176  RH  090%=      5-min Rain = 0
KVP1 151017Z 22010KT 19/18 A2982 RMK A01 T01930176  RH  090%=      5-min Rain = 0
KVP1 151018Z 23010KT 19/18 A2982 RMK A01 T01930176  RH  090%=      5-min Rain = 0
KVP1 151019Z 22011KT 19/18 A2982 RMK A01 T01920176  RH  090%=      5-min Rain = 0
KVP1 151020Z 22010KT 19/18 A2982 RMK A01 T01920176  RH  090%=      5-min Rain = 0
KVP1 151021Z 22012KT 19/18 A2982 RMK A01 T01920176  RH  090%=      5-min Rain = 0
KVP1 151022Z 22011KT 19/18 A2982 RMK A01 T01920176  RH  090%=      5-min Rain = 0
KVP1 151023Z 22010KT 19/18 A2982 RMK A01 T01920175  RH  090%=      5-min Rain = 0
KVP1 151024Z 22011KT 19/18 A2982 RMK A01 T01920175  RH  090%=      5-min Rain = 0
KVP1 151025Z 22010KT 19/18 A2982 RMK A01 T01920176  RH  090%=      5-min Rain = 0
KVP1 151026Z 21010KT 19/18 A2982 RMK A01 T01920175  RH  090%=      5-min Rain = 0
KVP1 151027Z 22010KT 19/18 A2982 RMK A01 T01920176  RH  090%=      5-min Rain = 0
KVP1 151028Z 22010KT 19/18 A2982 RMK A01 T01910175  RH  090%=      5-min Rain = 0
KVP1 151029Z 21010KT 19/18 A2982 RMK A01 T01910175  RH  090%=      5-min Rain = 0
KVP1 151030Z 22011KT 19/18 A2982 RMK A01 T01910175  RH  090%=      5-min Rain = 0
KVP1 151031Z 22010KT 19/18 A2982 RMK A01 T01910175  RH  090%=      5-min Rain = 0
KVP1 151032Z 22010KT 19/18 A2982 RMK A01 T01910175  RH  091%=      5-min Rain = 0
KVP1 151033Z 22011KT 19/18 A2982 RMK A01 T01900175  RH  091%=      5-min Rain = 0
KVP1 151034Z 21009KT 19/18 A2982 RMK A01 T01900175  RH  091%=      5-min Rain = 0
KVP1 151035Z 21010KT 19/18 A2982 RMK A01 T01900175  RH  091%=      5-min Rain = 0
KVP1 151036Z 21010KT 19/18 A2982 RMK A01 T01890175  RH  091%=      5-min Rain = 0
KVP1 151037Z 21010KT 19/17 A2982 RMK A01 T01890174  RH  091%=      5-min Rain = 0
KVP1 151038Z 21011KT 19/17 A2982 RMK A01 T01880174  RH  092%=      5-min Rain = 0
KVP1 151039Z 21010KT 19/17 A2982 RMK A01 T01880174  RH  092%=      5-min Rain = 0
KVP1 151040Z 20011KT 19/17 A2981 RMK A01 T01880174  RH  092%=      5-min Rain = 0
KVP1 151041Z 20012KT 19/17 A2981 RMK A01 T01880174  RH  092%=      5-min Rain = 0
KVP1 151042Z 20011KT 19/17 A2981 RMK A01 T01880174  RH  092%=      5-min Rain = 0
KVP1 151043Z 20012KT 19/17 A2981 RMK A01 T01880174  RH  091%=      5-min Rain = 0
KVP1 151044Z 20012KT 19/17 A2981 RMK A01 T01880174  RH  091%=      5-min Rain = 0
KVP1 151045Z 20012KT 19/17 A2981 RMK A01 T01890174  RH  091%=      5-min Rain = 0
KVP1 151046Z 20013KT 19/17 A2981 RMK A01 T01890173  RH  091%=      5-min Rain = 0
KVP1 151047Z 20011KT 19/17 A2981 RMK A01 T01890173  RH  091%=      5-min Rain = 0
KVP1 151048Z 21012KT 19/17 A2981 RMK A01 T01890173  RH  090%=      5-min Rain = 0
KVP1 151049Z 21012KT 19/17 A2981 RMK A01 T01890173  RH  090%=      5-min Rain = 0
KVP1 151050Z 21012KT 19/17 A2981 RMK A01 T01890173  RH  090%=      5-min Rain = 0
KVP1 151051Z 21011KT 19/17 A2981 RMK A01 T01890173  RH  090%=      5-min Rain = 0
KVP1 151052Z 22011KT 19/17 A2981 RMK A01 T01890173  RH  090%=      5-min Rain = 0
KVP1 151053Z 22010KT 19/17 A2981 RMK A01 T01890173  RH  090%=      5-min Rain = 0
KVP1 151054Z 22010KT 19/17 A2982 RMK A01 T01890174  RH  091%=      5-min Rain = 0
KVP1 151055Z 23010KT 19/17 A2982 RMK A01 T01880173  RH  091%=      5-min Rain = 0
KVP1 151056Z 23010KT 19/17 A2982 RMK A01 T01880173  RH  091%=      5-min Rain = 0
KVP1 151057Z 23010KT 19/17 A2982 RMK A01 T01880173  RH  091%=      5-min Rain = 0
KVP1 151058Z 23011KT 19/17 A2982 RMK A01 T01880173  RH  091%=      5-min Rain = 0
KVP1 151059Z 22012KT 19/17 A2982 RMK A01 T01880173  RH  091%=      5-min Rain = 0
KVP1 151100Z 22011KT 19/17 A2981 RMK A01 T01870173  RH  091%=      5-min Rain = 0
KVP1 151101Z 21011KT 19/17 A2981 RMK A01 T01880173  RH  091%=      5-min Rain = 0
KVP1 151102Z 21012KT 19/17 A2981 RMK A01 T01870173  RH  091%=      5-min Rain = 0
KVP1 151103Z 21012KT 19/17 A2981 RMK A01 T01870173  RH  092%=      5-min Rain = 0
KVP1 151104Z 21014KT 19/17 A2981 RMK A01 T01870173  RH  092%=      5-min Rain = 0
KVP1 151105Z 20013KT 19/17 A2981 RMK A01 T01870173  RH  092%=      5-min Rain = 0
KVP1 151106Z 20013KT 19/17 A2981 RMK A01 T01870173  RH  091%=      5-min Rain = 0
KVP1 151107Z 20013KT 19/17 A2981 RMK A01 T01870173  RH  091%=      5-min Rain = 0
KVP1 151108Z 20013KT 19/17 A2981 RMK A01 T01870173  RH  091%=      5-min Rain = 0
KVP1 151109Z 20012KT 19/17 A2981 RMK A01 T01870173  RH  091%=      5-min Rain = 0
KVP1 151110Z 20012KT 19/17 A2981 RMK A01 T01870173  RH  091%=      5-min Rain = 0
KVP1 151111Z 20011KT 19/17 A2981 RMK A01 T01870172  RH  091%=      5-min Rain = 0
KVP1 151112Z 21013KT 19/17 A2981 RMK A01 T01870172  RH  091%=      5-min Rain = 0
KVP1 151113Z 21011G16KT 19/17 A2981 RMK A01 T01870172  RH  091%=      5-min Rain = 0
KVP1 151114Z 21012KT 19/17 A2981 RMK A01 T01870172  RH  091%=      5-min Rain = 0
KVP1 151115Z 21012KT 19/17 A2981 RMK A01 T01880172  RH  091%=      5-min Rain = 0
KVP1 151116Z 21011KT 19/17 A2981 RMK A01 T01870172  RH  091%=      5-min Rain = 0
KVP1 151117Z 21013KT 19/17 A2981 RMK A01 T01880172  RH  091%=      5-min Rain = 0
KVP1 151118Z 21013KT 19/17 A2981 RMK A01 T01880172  RH  090%=      5-min Rain = 0
KVP1 151119Z 20012KT 19/17 A2981 RMK A01 T01890172  RH  090%=      5-min Rain = 0
KVP1 151120Z 21012KT 19/17 A2981 RMK A01 T01890172  RH  090%=      5-min Rain = 0
KVP1 151121Z 21012KT 19/17 A2981 RMK A01 T01880171  RH  090%=      5-min Rain = 0
KVP1 151122Z 21012KT 19/17 A2981 RMK A01 T01880172  RH  090%=      5-min Rain = 0
KVP1 151123Z 21012KT 19/17 A2981 RMK A01 T01880171  RH  090%=      5-min Rain = 0
KVP1 151124Z 21014KT 19/17 A2981 RMK A01 T01870171  RH  090%=      5-min Rain = 0
KVP1 151125Z 21012KT 19/17 A2981 RMK A01 T01880171  RH  090%=      5-min Rain = 0
KVP1 151126Z 21013KT 19/17 A2981 RMK A01 T01880171  RH  090%=      5-min Rain = 0
KVP1 151127Z 21012KT 19/17 A2981 RMK A01 T01880170  RH  090%=      5-min Rain = 0
KVP1 151128Z 21013KT 19/17 A2981 RMK A01 T01880170  RH  090%=      5-min Rain = 0
KVP1 151129Z 21012KT 19/17 A2981 RMK A01 T01880170  RH  089%=      5-min Rain = 0
KVP1 151130Z 21013KT 19/17 A2981 RMK A01 T01880170  RH  089%=      5-min Rain = 0
KVP1 151131Z 21012KT 19/17 A2981 RMK A01 T01880170  RH  089%=      5-min Rain = 0
KVP1 151132Z 21012KT 19/17 A2981 RMK A01 T01880170  RH  089%=      5-min Rain = 0
KVP1 151133Z 21013KT 19/17 A2981 RMK A01 T01870170  RH  089%=      5-min Rain = 0
KVP1 151134Z 21011KT 19/17 A2981 RMK A01 T01870169  RH  089%=      5-min Rain = 0
KVP1 151135Z 20011KT 19/17 A2981 RMK A01 T01870169  RH  089%=      5-min Rain = 0
KVP1 151136Z 21011KT 19/17 A2981 RMK A01 T01870169  RH  089%=      5-min Rain = 0
KVP1 151137Z 21011KT 19/17 A2981 RMK A01 T01870169  RH  089%=      5-min Rain = 0
KVP1 151138Z 21010G15KT 19/17 A2981 RMK A01 T01870169  RH  089%=      5-min Rain = 0
KVP1 151139Z 21013KT 19/17 A2981 RMK A01 T01860168  RH  089%=      5-min Rain = 0
KVP1 151140Z 21013KT 19/17 A2981 RMK A01 T01860168  RH  089%=      5-min Rain = 0
KVP1 151141Z 21012KT 19/17 A2981 RMK A01 T01860168  RH  089%=      5-min Rain = 0
KVP1 151142Z 21011KT 19/17 A2981 RMK A01 T01860168  RH  089%=      5-min Rain = 0
KVP1 151143Z 21012KT 19/17 A2981 RMK A01 T01860168  RH  089%=      5-min Rain = 0
KVP1 151144Z 21012KT 19/17 A2981 RMK A01 T01850167  RH  089%=      5-min Rain = 0
KVP1 151145Z 21012KT 19/17 A2981 RMK A01 T01850167  RH  089%=      5-min Rain = 0
KVP1 151146Z 22011KT 19/17 A2981 RMK A01 T01850167  RH  089%=      5-min Rain = 0
KVP1 151147Z 22011KT 19/17 A2981 RMK A01 T01850166  RH  089%=      5-min Rain = 0
KVP1 151148Z 22011KT 19/17 A2981 RMK A01 T01850166  RH  089%=      5-min Rain = 0
KVP1 151149Z 22011KT 19/17 A2981 RMK A01 T01850166  RH  089%=      5-min Rain = 0
KVP1 151150Z 23011KT 19/17 A2981 RMK A01 T01850166  RH  089%=      5-min Rain = 0
KVP1 151151Z 22009KT 18/17 A2981 RMK A01 T01840166  RH  089%=      5-min Rain = 0
KVP1 151152Z 22010KT 18/17 A2981 RMK A01 T01830165  RH  089%=      5-min Rain = 0
KVP1 151153Z 22010KT 18/17 A2981 RMK A01 T01830165  RH  089%=      5-min Rain = 0
KVP1 151154Z 21010KT 18/17 A2981 RMK A01 T01830165  RH  089%=      5-min Rain = 0
KVP1 151155Z 21010KT 18/17 A2981 RMK A01 T01830165  RH  089%=      5-min Rain = 0
KVP1 151156Z 21010KT 18/17 A2981 RMK A01 T01830165  RH  089%=      5-min Rain = 0
KVP1 151157Z 21010KT 18/17 A2981 RMK A01 T01830165  RH  089%=      5-min Rain = 0
KVP1 151158Z 21009KT 18/17 A2981 RMK A01 T01820165  RH  089%=      5-min Rain = 0
KVP1 151159Z 22009KT 18/16 A2981 RMK A01 T01820164  RH  090%=      5-min Rain = 0
KVP1 151200Z 21009KT 18/16 A2981 RMK A01 T01820164  RH  089%=      5-min Rain = 0
KVP1 151201Z 22009KT 18/16 A2981 RMK A01 T01820164  RH  089%=      5-min Rain = 0
KVP1 151202Z 22008KT 18/16 A2981 RMK A01 T01820164  RH  089%=      5-min Rain = 0
KVP1 151203Z 22009KT 18/16 A2981 RMK A01 T01820164  RH  089%=      5-min Rain = 0
KVP1 151204Z 22008KT 18/16 A2982 RMK A01 T01810163  RH  089%=      5-min Rain = 0
KVP1 151205Z 23008KT 18/16 A2982 RMK A01 T01810163  RH  089%=      5-min Rain = 0
KVP1 151206Z 23009KT 18/16 A2982 RMK A01 T01810163  RH  089%=      5-min Rain = 0
KVP1 151207Z 23009KT 18/16 A2981 RMK A01 T01810163  RH  089%=      5-min Rain = 0
KVP1 151208Z 22009KT 18/16 A2981 RMK A01 T01810163  RH  089%=      5-min Rain = 0
KVP1 151209Z 22009KT 18/16 A2981 RMK A01 T01810163  RH  089%=      5-min Rain = 0
KVP1 151210Z 22009KT 18/16 A2981 RMK A01 T01810162  RH  089%=      5-min Rain = 0
KVP1 151211Z 22009KT 18/16 A2981 RMK A01 T01810161  RH  088%=      5-min Rain = 0
KVP1 151212Z 23009KT 18/16 A2981 RMK A01 T01810161  RH  088%=      5-min Rain = 0
KVP1 151213Z 23010KT 18/16 A2981 RMK A01 T01820161  RH  088%=      5-min Rain = 0
KVP1 151214Z 23010KT 18/16 A2981 RMK A01 T01820161  RH  087%=      5-min Rain = 0
KVP1 151215Z 23011KT 18/16 A2981 RMK A01 T01830160  RH  087%=      5-min Rain = 0
KVP1 151216Z 22011KT 18/16 A2981 RMK A01 T01830160  RH  086%=      5-min Rain = 0
KVP1 151217Z 22011KT 19/16 A2981 RMK A01 T01850160  RH  085%=      5-min Rain = 0
KVP1 151218Z 22012KT 19/16 A2981 RMK A01 T01850159  RH  085%=      5-min Rain = 0
KVP1 151219Z 22012KT 19/16 A2981 RMK A01 T01860158  RH  084%=      5-min Rain = 0
KVP1 151220Z 22012KT 19/16 A2981 RMK A01 T01870158  RH  084%=      5-min Rain = 0
KVP1 151221Z 23011KT 19/16 A2981 RMK A01 T01870158  RH  083%=      5-min Rain = 0
KVP1 151222Z 23012KT 19/16 A2981 RMK A01 T01880158  RH  083%=      5-min Rain = 0
KVP1 151223Z 23010KT 19/16 A2981 RMK A01 T01890158  RH  082%=      5-min Rain = 0
KVP1 151224Z 23011KT 19/16 A2981 RMK A01 T01890158  RH  082%=      5-min Rain = 0
KVP1 151225Z 23011KT 19/16 A2981 RMK A01 T01890158  RH  082%=      5-min Rain = 0
KVP1 151226Z 23012KT 19/16 A2981 RMK A01 T01890158  RH  082%=      5-min Rain = 0
KVP1 151227Z 23011KT 19/16 A2981 RMK A01 T01890157  RH  081%=      5-min Rain = 0
KVP1 151228Z 23011KT 19/16 A2981 RMK A01 T01900157  RH  081%=      5-min Rain = 0
KVP1 151229Z 23011KT 19/16 A2981 RMK A01 T01910157  RH  081%=      5-min Rain = 0
KVP1 151230Z 23010KT 19/16 A2981 RMK A01 T01910157  RH  081%=      5-min Rain = 0
KVP1 151231Z 23010KT 19/16 A2982 RMK A01 T01920158  RH  081%=      5-min Rain = 0
KVP1 151232Z 23011KT 19/16 A2982 RMK A01 T01920157  RH  080%=      5-min Rain = 0
KVP1 151233Z 23010KT 19/16 A2982 RMK A01 T01930157  RH  080%=      5-min Rain = 0
KVP1 151234Z 23011KT 19/16 A2982 RMK A01 T01930158  RH  080%=      5-min Rain = 0
KVP1 151235Z 23012G17KT 19/16 A2982 RMK A01 T01940158  RH  080%=      5-min Rain = 0
KVP1 151236Z 23012KT 20/16 A2981 RMK A01 T01950157  RH  079%=      5-min Rain = 0
KVP1 151237Z 23011KT 20/16 A2981 RMK A01 T01960158  RH  079%=      5-min Rain = 0
KVP1 151238Z 23012KT 20/16 A2982 RMK A01 T01960158  RH  079%=      5-min Rain = 0
KVP1 151239Z 23013KT 20/16 A2982 RMK A01 T01970157  RH  078%=      5-min Rain = 0
KVP1 151240Z 23013KT 20/16 A2982 RMK A01 T01970158  RH  078%=      5-min Rain = 0
KVP1 151241Z 24013KT 20/16 A2982 RMK A01 T01980158  RH  078%=      5-min Rain = 0
KVP1 151242Z 24012KT 20/16 A2982 RMK A01 T01980158  RH  078%=      5-min Rain = 0
KVP1 151243Z 24012KT 20/16 A2982 RMK A01 T01980158  RH  078%=      5-min Rain = 0
KVP1 151244Z 24012KT 20/16 A2982 RMK A01 T01980159  RH  078%=      5-min Rain = 0
KVP1 151245Z 24011KT 20/16 A2982 RMK A01 T01980158  RH  078%=      5-min Rain = 0
KVP1 151246Z 24012KT 20/16 A2982 RMK A01 T01980158  RH  077%=      5-min Rain = 0
KVP1 151247Z 24013KT 20/16 A2982 RMK A01 T01990157  RH  077%=      5-min Rain = 0
KVP1 151248Z 24013KT 20/16 A2982 RMK A01 T01990157  RH  076%=      5-min Rain = 0
KVP1 151249Z 24013KT 20/16 A2982 RMK A01 T01990158  RH  077%=      5-min Rain = 0
KVP1 151250Z 24013KT 20/16 A2981 RMK A01 T01990158  RH  077%=      5-min Rain = 0
KVP1 151251Z 24010KT 20/16 A2981 RMK A01 T02000159  RH  077%=      5-min Rain = 0
KVP1 151252Z 24012KT 20/16 A2981 RMK A01 T01990158  RH  077%=      5-min Rain = 0
KVP1 151253Z 24012KT 20/16 A2981 RMK A01 T01990158  RH  077%=      5-min Rain = 0
KVP1 151254Z 24012KT 20/16 A2981 RMK A01 T02000158  RH  077%=      5-min Rain = 0
KVP1 151255Z 24012KT 20/16 A2981 RMK A01 T02000158  RH  077%=      5-min Rain = 0
KVP1 151256Z 25013KT 20/16 A2981 RMK A01 T02000158  RH  077%=      5-min Rain = 0
KVP1 151257Z 24013KT 20/16 A2981 RMK A01 T02000158  RH  077%=      5-min Rain = 0
KVP1 151258Z 24012KT 20/16 A2981 RMK A01 T02010157  RH  076%=      5-min Rain = 0
KVP1 151259Z 24013KT 20/16 A2981 RMK A01 T02000157  RH  076%=      5-min Rain = 0
KVP1 151300Z 24013KT 20/16 A2981 RMK A01 T02000157  RH  076%=      5-min Rain = 0
KVP1 151301Z 24013KT 20/16 A2981 RMK A01 T02000157  RH  076%=      5-min Rain = 0
KVP1 151302Z 24011KT 20/16 A2981 RMK A01 T02000158  RH  076%=      5-min Rain = 0
KVP1 151303Z 24011KT 20/16 A2981 RMK A01 T02010159  RH  077%=      5-min Rain = 0
KVP1 151304Z 24010KT 20/16 A2981 RMK A01 T02010158  RH  076%=      5-min Rain = 0
KVP1 151305Z 25009KT 20/16 A2981 RMK A01 T02010160  RH  077%=      5-min Rain = 0
KVP1 151306Z 25010KT 20/16 A2981 RMK A01 T02010160  RH  077%=      5-min Rain = 0
KVP1 151307Z 25011KT 20/16 A2981 RMK A01 T02010158  RH  076%=      5-min Rain = 0
KVP1 151308Z 24011KT 20/16 A2981 RMK A01 T02020158  RH  076%=      5-min Rain = 0
KVP1 151309Z 25011KT 20/16 A2981 RMK A01 T02020158  RH  076%=      5-min Rain = 0
KVP1 151310Z 25014KT 20/16 A2981 RMK A01 T02030155  RH  074%=      5-min Rain = 0
KVP1 151311Z 25014KT 20/15 A2981 RMK A01 T02030153  RH  073%=      5-min Rain = 0
KVP1 151312Z 25012KT 20/15 A2981 RMK A01 T02030154  RH  074%=      5-min Rain = 0
KVP1 151313Z 25012KT 20/15 A2981 RMK A01 T02030152  RH  072%=      5-min Rain = 0
KVP1 151314Z 25013KT 20/15 A2981 RMK A01 T02030153  RH  073%=      5-min Rain = 0
KVP1 151315Z 26014KT 20/15 A2981 RMK A01 T02040152  RH  072%=      5-min Rain = 0
KVP1 151316Z 26015KT 20/15 A2981 RMK A01 T02040149  RH  071%=      5-min Rain = 0
KVP1 151317Z 25014KT 20/15 A2981 RMK A01 T02040149  RH  070%=      5-min Rain = 0
KVP1 151318Z 25013KT 20/15 A2981 RMK A01 T02040151  RH  071%=      5-min Rain = 0
KVP1 151319Z 26014KT 20/15 A2981 RMK A01 T02040150  RH  071%=      5-min Rain = 0
KVP1 151320Z 26015KT 20/15 A2982 RMK A01 T02040150  RH  071%=      5-min Rain = 0
KVP1 151321Z 26013KT 20/15 A2982 RMK A01 T02040147  RH  069%=      5-min Rain = 0
KVP1 151322Z 26014KT 21/14 A2982 RMK A01 T02050144  RH  068%=      5-min Rain = 0
KVP1 151323Z 26015KT 21/14 A2982 RMK A01 T02050143  RH  068%=      5-min Rain = 0
KVP1 151324Z 26014KT 21/14 A2981 RMK A01 T02050142  RH  067%=      5-min Rain = 0
KVP1 151325Z 26016KT 21/14 A2981 RMK A01 T02060139  RH  065%=      5-min Rain = 0
KVP1 151326Z 26015KT 21/14 A2981 RMK A01 T02050136  RH  065%=      5-min Rain = 0
KVP1 151327Z 27013KT 21/14 A2981 RMK A01 T02060138  RH  065%=      5-min Rain = 0
KVP1 151328Z 26013KT 21/14 A2981 RMK A01 T02060138  RH  065%=      5-min Rain = 0
KVP1 151329Z 26015KT 21/14 A2981 RMK A01 T02050138  RH  065%=      5-min Rain = 0
KVP1 151330Z 26014KT 21/14 A2981 RMK A01 T02060137  RH  065%=      5-min Rain = 0
KVP1 151331Z 26013KT 21/14 A2981 RMK A01 T02060136  RH  064%=      5-min Rain = 0
KVP1 151332Z 27014KT 21/13 A2981 RMK A01 T02060133  RH  063%=      5-min Rain = 0
KVP1 151333Z 27013KT 21/13 A2981 RMK A01 T02060134  RH  063%=      5-min Rain = 0
KVP1 151334Z 27012KT 21/14 A2981 RMK A01 T02060135  RH  064%=      5-min Rain = 0
KVP1 151335Z 26014KT 21/14 A2981 RMK A01 T02070135  RH  064%=      5-min Rain = 0
KVP1 151336Z 26013KT 21/13 A2981 RMK A01 T02070133  RH  063%=      5-min Rain = 0
KVP1 151337Z 26013KT 21/13 A2982 RMK A01 T02060134  RH  063%=      5-min Rain = 0
KVP1 151338Z 27012KT 21/14 A2982 RMK A01 T02060136  RH  064%=      5-min Rain = 0
KVP1 151339Z 26012KT 21/14 A2982 RMK A01 T02060138  RH  065%=      5-min Rain = 0
KVP1 151340Z 27012KT 21/14 A2982 RMK A01 T02060137  RH  064%=      5-min Rain = 0
KVP1 151341Z 27013KT 21/14 A2982 RMK A01 T02060138  RH  065%=      5-min Rain = 0
KVP1 151342Z 27012KT 21/14 A2982 RMK A01 T02060138  RH  065%=      5-min Rain = 0
KVP1 151343Z 27014KT 21/14 A2982 RMK A01 T02060137  RH  064%=      5-min Rain = 0
KVP1 151344Z 27014KT 21/14 A2982 RMK A01 T02050136  RH  064%=      5-min Rain = 0
KVP1 151345Z 27013KT 21/14 A2982 RMK A01 T02050137  RH  065%=      5-min Rain = 0
KVP1 151346Z 27014KT 21/14 A2982 RMK A01 T02050137  RH  065%=      5-min Rain = 0
KVP1 151347Z 27012KT 21/14 A2982 RMK A01 T02050138  RH  065%=      5-min Rain = 0
KVP1 151348Z 28009KT 21/14 A2982 RMK A01 T02060139  RH  065%=      5-min Rain = 0
KVP1 151349Z 27010KT 21/14 A2982 RMK A01 T02070137  RH  064%=      5-min Rain = 0
KVP1 151350Z 27009KT 21/14 A2982 RMK A01 T02080140  RH  065%=      5-min Rain = 0
KVP1 151351Z 27012KT 21/14 A2982 RMK A01 T02080137  RH  064%=      5-min Rain = 0
KVP1 151352Z 28010KT 21/14 A2982 RMK A01 T02080137  RH  064%=      5-min Rain = 0
KVP1 151353Z 28010KT 21/14 A2982 RMK A01 T02080140  RH  065%=      5-min Rain = 0
KVP1 151354Z 28014KT 21/14 A2982 RMK A01 T02090135  RH  063%=      5-min Rain = 0
KVP1 151355Z 27014KT 21/13 A2982 RMK A01 T02090134  RH  062%=      5-min Rain = 0
KVP1 151356Z 27011KT 21/13 A2982 RMK A01 T02080134  RH  062%=      5-min Rain = 0
KVP1 151357Z 27013KT 21/14 A2982 RMK A01 T02080135  RH  063%=      5-min Rain = 0
KVP1 151358Z 28012KT 21/14 A2982 RMK A01 T02080135  RH  063%=      5-min Rain = 0
KVP1 151359Z 28013KT 21/13 A2982 RMK A01 T02080134  RH  063%=      5-min Rain = 0
KVP1 151400Z 28012KT 21/13 A2982 RMK A01 T02080134  RH  062%=      5-min Rain = 0
KVP1 151401Z 28012KT 21/14 A2982 RMK A01 T02090135  RH  063%=      5-min Rain = 0
KVP1 151402Z 28012KT 21/13 A2982 RMK A01 T02090131  RH  061%=      5-min Rain = 0
KVP1 151403Z 28012KT 21/13 A2982 RMK A01 T02090128  RH  060%=      5-min Rain = 0
KVP1 151404Z 29012KT 21/13 A2982 RMK A01 T02100129  RH  060%=      5-min Rain = 0
KVP1 151405Z 28012KT 21/13 A2982 RMK A01 T02100131  RH  061%=      5-min Rain = 0
KVP1 151406Z 28011KT 21/13 A2982 RMK A01 T02090131  RH  061%=      5-min Rain = 0
KVP1 151407Z 28009KT 21/13 A2982 RMK A01 T02100132  RH  061%=      5-min Rain = 0
KVP1 151408Z 29013KT 21/13 A2982 RMK A01 T02110134  RH  062%=      5-min Rain = 0
KVP1 151409Z 28014KT 21/13 A2982 RMK A01 T02120127  RH  059%=      5-min Rain = 0
KVP1 151410Z 29014KT 21/13 A2982 RMK A01 T02110126  RH  058%=      5-min Rain = 0
KVP1 151411Z 28012KT 21/13 A2982 RMK A01 T02110127  RH  059%=      5-min Rain = 0
KVP1 151412Z 29011KT 21/13 A2982 RMK A01 T02110130  RH  060%=      5-min Rain = 0
KVP1 151413Z 29011KT 21/13 A2982 RMK A01 T02110132  RH  061%=      5-min Rain = 0
KVP1 151414Z 29011KT 21/13 A2983 RMK A01 T02120131  RH  060%=      5-min Rain = 0
KVP1 151415Z 30013KT 21/13 A2983 RMK A01 T02110129  RH  059%=      5-min Rain = 0
KVP1 151416Z 30013KT 21/13 A2983 RMK A01 T02110131  RH  060%=      5-min Rain = 0
KVP1 151417Z 29011KT 21/13 A2983 RMK A01 T02120130  RH  060%=      5-min Rain = 0
KVP1 151418Z 29011KT 21/14 A2982 RMK A01 T02120135  RH  062%=      5-min Rain = 0
KVP1 151419Z 30013KT 21/14 A2983 RMK A01 T02120135  RH  061%=      5-min Rain = 0
KVP1 151420Z 30013KT 21/14 A2983 RMK A01 T02120135  RH  061%=      5-min Rain = 0
KVP1 151421Z 30014KT 21/14 A2983 RMK A01 T02120137  RH  062%=      5-min Rain = 0
KVP1 151422Z 30015KT 21/14 A2983 RMK A01 T02120138  RH  063%=      5-min Rain = 0
KVP1 151423Z 30014KT 21/14 A2983 RMK A01 T02110141  RH  064%=      5-min Rain = 0
KVP1 151424Z 30013KT 21/14 A2983 RMK A01 T02110142  RH  065%=      5-min Rain = 0
KVP1 151425Z 30015KT 21/14 A2983 RMK A01 T02110143  RH  065%=      5-min Rain = 0
KVP1 151426Z 30016KT 21/14 A2983 RMK A01 T02120141  RH  064%=      5-min Rain = 0
KVP1 151427Z 30013KT 21/14 A2983 RMK A01 T02110141  RH  064%=      5-min Rain = 0
KVP1 151428Z 30013KT 21/14 A2983 RMK A01 T02100143  RH  065%=      5-min Rain = 0
KVP1 151429Z 30013KT 21/14 A2983 RMK A01 T02110144  RH  065%=      5-min Rain = 0
KVP1 151430Z 31013KT 21/15 A2983 RMK A01 T02110145  RH  066%=      5-min Rain = 0
KVP1 151431Z 31012KT 21/15 A2983 RMK A01 T02120145  RH  065%=      5-min Rain = 0
KVP1 151432Z 32013KT 21/15 A2983 RMK A01 T02120147  RH  066%=      5-min Rain = 0
KVP1 151433Z 31015KT 21/14 A2983 RMK A01 T02140144  RH  064%=      5-min Rain = 0
KVP1 151434Z 32012KT 21/15 A2983 RMK A01 T02140145  RH  065%=      5-min Rain = 0
KVP1 151435Z 31010KT 21/15 A2983 RMK A01 T02140148  RH  066%=      5-min Rain = 0
KVP1 151436Z 31014KT 22/15 A2983 RMK A01 T02150147  RH  065%=      5-min Rain = 0
KVP1 151437Z 31012KT 22/15 A2983 RMK A01 T02150147  RH  065%=      5-min Rain = 0
KVP1 151438Z 32010KT 22/15 A2984 RMK A01 T02150150  RH  067%=      5-min Rain = 0
KVP1 151439Z 32012KT 22/15 A2984 RMK A01 T02160152  RH  067%=      5-min Rain = 0
KVP1 151440Z 33012KT 22/15 A2985 RMK A01 T02180153  RH  066%=      5-min Rain = 0
KVP1 151441Z 33011KT 22/15 A2985 RMK A01 T02190151  RH  065%=      5-min Rain = 0
KVP1 151442Z 33010KT 22/15 A2984 RMK A01 T02190153  RH  066%=      5-min Rain = 0
KVP1 151443Z 33011KT 22/15 A2984 RMK A01 T02200154  RH  066%=      5-min Rain = 0
KVP1 151444Z 33012KT 22/15 A2984 RMK A01 T02210154  RH  066%=      5-min Rain = 0
KVP1 151445Z 33012KT 22/16 A2984 RMK A01 T02220155  RH  066%=      5-min Rain = 0
KVP1 151446Z 34010KT 22/15 A2984 RMK A01 T02230154  RH  065%=      5-min Rain = 0
KVP1 151447Z 34013KT 22/15 A2984 RMK A01 T02230151  RH  064%=      5-min Rain = 0
KVP1 151448Z 33012KT 22/15 A2985 RMK A01 T02220153  RH  065%=      5-min Rain = 0
KVP1 151449Z 33010KT 22/15 A2985 RMK A01 T02210152  RH  065%=      5-min Rain = 0
KVP1 151450Z 33010KT 22/16 A2985 RMK A01 T02210156  RH  067%=      5-min Rain = 0
KVP1 151451Z 33012KT 22/16 A2984 RMK A01 T02240157  RH  066%=      5-min Rain = 0
KVP1 151452Z 33010KT 23/16 A2984 RMK A01 T02250155  RH  065%=      5-min Rain = 0
KVP1 151453Z 32012KT 23/16 A2984 RMK A01 T02250156  RH  065%=      5-min Rain = 0
KVP1 151454Z 33011KT 23/16 A2984 RMK A01 T02250155  RH  065%=      5-min Rain = 0
KVP1 151455Z 33011KT 23/16 A2984 RMK A01 T02260160  RH  067%=      5-min Rain = 0
KVP1 151456Z 33014KT 23/16 A2984 RMK A01 T02290156  RH  064%=      5-min Rain = 0
KVP1 151457Z 33012KT 23/15 A2984 RMK A01 T02280154  RH  063%=      5-min Rain = 0
KVP1 151458Z 33014KT 23/15 A2984 RMK A01 T02270154  RH  063%=      5-min Rain = 0
KVP1 151459Z 34012KT 23/16 A2984 RMK A01 T02270155  RH  064%=      5-min Rain = 0
KVP1 151500Z 35013KT 23/15 A2984 RMK A01 T02280153  RH  063%=      5-min Rain = 0
KVP1 151501Z 35012KT 23/15 A2984 RMK A01 T02280150  RH  061%=      5-min Rain = 0
KVP1 151502Z 35012KT 23/15 A2985 RMK A01 T02270151  RH  062%=      5-min Rain = 0
KVP1 151503Z 35010KT 23/15 A2985 RMK A01 T02260151  RH  062%=      5-min Rain = 0
KVP1 151504Z 35007G12KT 23/15 A2985 RMK A01 T02270153  RH  063%=      5-min Rain = 0
KVP1 151505Z 35011KT 23/15 A2985 RMK A01 T02290150  RH  061%=      5-min Rain = 0
KVP1 151506Z 34011KT 23/15 A2985 RMK A01 T02300152  RH  062%=      5-min Rain = 0
KVP1 151507Z 34010KT 23/15 A2985 RMK A01 T02310152  RH  061%=      5-min Rain = 0
KVP1 151508Z 36009KT 23/15 A2985 RMK A01 T02310153  RH  062%=      5-min Rain = 0
KVP1 151509Z 36009KT 23/15 A2985 RMK A01 T02320152  RH  061%=      5-min Rain = 0
KVP1 151510Z 35007KT 23/15 A2984 RMK A01 T02330151  RH  060%=      5-min Rain = 0
KVP1 151511Z 34010KT 23/16 A2985 RMK A01 T02340156  RH  061%=      5-min Rain = 0
KVP1 151512Z 35010KT 24/15 A2985 RMK A01 T02350154  RH  060%=      5-min Rain = 0
KVP1 151513Z 35009KT 24/15 A2985 RMK A01 T02350151  RH  059%=      5-min Rain = 0
KVP1 151514Z 35008KT 23/15 A2985 RMK A01 T02340153  RH  060%=      5-min Rain = 0
KVP1 151515Z 35009KT 23/15 A2985 RMK A01 T02320152  RH  060%=      5-min Rain = 0
KVP1 151516Z 36007KT 23/15 A2985 RMK A01 T02310152  RH  061%=      5-min Rain = 0
KVP1 151517Z 35007KT 23/15 A2985 RMK A01 T02310154  RH  062%=      5-min Rain = 0
KVP1 151518Z 35008KT 23/15 A2986 RMK A01 T02310154  RH  062%=      5-min Rain = 0
KVP1 151519Z 00007KT 23/16 A2986 RMK A01 T02320156  RH  063%=      5-min Rain = 0
KVP1 151520Z 00010KT 23/15 A2986 RMK A01 T02320153  RH  061%=      5-min Rain = 0
KVP1 151521Z 35009KT 23/16 A2986 RMK A01 T02320155  RH  062%=      5-min Rain = 0
KVP1 151522Z 36006KT 23/16 A2986 RMK A01 T02330156  RH  062%=      5-min Rain = 0
KVP1 151523Z 34008KT 24/16 A2986 RMK A01 T02350159  RH  063%=      5-min Rain = 0
KVP1 151524Z 34010KT 24/16 A2986 RMK A01 T02360155  RH  061%=      5-min Rain = 0
KVP1 151525Z 34009KT 23/16 A2986 RMK A01 T02340156  RH  061%=      5-min Rain = 0
KVP1 151526Z 35010KT 24/16 A2987 RMK A01 T02350160  RH  063%=      5-min Rain = 0
KVP1 151527Z 34011KT 24/16 A2987 RMK A01 T02360156  RH  061%=      5-min Rain = 0
KVP1 151528Z 34009KT 24/16 A2986 RMK A01 T02360158  RH  062%=      5-min Rain = 0
KVP1 151529Z 33012KT 24/16 A2986 RMK A01 T02360159  RH  062%=      5-min Rain = 0
KVP1 151530Z 32012KT 24/16 A2986 RMK A01 T02350158  RH  062%=      5-min Rain = 0
KVP1 151531Z 33008KT 24/16 A2986 RMK A01 T02350159  RH  063%=      5-min Rain = 0
KVP1 151532Z 32011KT 24/16 A2986 RMK A01 T02360160  RH  063%=      5-min Rain = 0
KVP1 151533Z 33010KT 24/16 A2986 RMK A01 T02360160  RH  062%=      5-min Rain = 0
KVP1 151534Z 34010KT 24/16 A2987 RMK A01 T02370161  RH  062%=      5-min Rain = 0
KVP1 151535Z 34010KT 24/16 A2987 RMK A01 T02380160  RH  062%=      5-min Rain = 0
KVP1 151536Z 35013KT 24/17 A2987 RMK A01 T02390166  RH  064%=      5-min Rain = 0
KVP1 151537Z 35013KT 24/16 A2987 RMK A01 T02400162  RH  062%=      5-min Rain = 0
KVP1 151538Z 35014KT 24/16 A2987 RMK A01 T02380163  RH  063%=      5-min Rain = 0
KVP1 151539Z 35013KT 24/16 A2987 RMK A01 T02380163  RH  063%=      5-min Rain = 0
KVP1 151540Z 35012KT 24/16 A2987 RMK A01 T02370163  RH  063%=      5-min Rain = 0
KVP1 151541Z 34012KT 24/16 A2987 RMK A01 T02360162  RH  063%=      5-min Rain = 0
KVP1 151542Z 34011G16KT 24/17 A2987 RMK A01 T02360168  RH  066%=      5-min Rain = 0
KVP1 151543Z 35013KT 24/17 A2987 RMK A01 T02400168  RH  064%=      5-min Rain = 0
KVP1 151544Z 34013KT 24/16 A2987 RMK A01 T02400164  RH  063%=      5-min Rain = 0
KVP1 151545Z 34015KT 24/17 A2987 RMK A01 T02390167  RH  064%=      5-min Rain = 0
KVP1 151546Z 34014KT 24/17 A2987 RMK A01 T02390167  RH  064%=      5-min Rain = 0
KVP1 151547Z 34013KT 24/17 A2986 RMK A01 T02390166  RH  063%=      5-min Rain = 0
KVP1 151548Z 34013KT 24/17 A2987 RMK A01 T02390167  RH  064%=      5-min Rain = 0
KVP1 151549Z 34011KT 24/17 A2987 RMK A01 T02380167  RH  064%=      5-min Rain = 0
KVP1 151550Z 32014KT 24/17 A2987 RMK A01 T02410171  RH  065%=      5-min Rain = 0
KVP1 151551Z 33014KT 24/17 A2987 RMK A01 T02410168  RH  063%=      5-min Rain = 0
KVP1 151552Z 33013KT 24/17 A2987 RMK A01 T02400167  RH  064%=      5-min Rain = 0
KVP1 151553Z 34013KT 24/17 A2987 RMK A01 T02390169  RH  065%=      5-min Rain = 0
KVP1 151554Z 34010KT 24/17 A2987 RMK A01 T02400168  RH  064%=      5-min Rain = 0
KVP1 151555Z 34010KT 24/17 A2987 RMK A01 T02400168  RH  064%=      5-min Rain = 0
KVP1 151556Z 34012KT 24/17 A2987 RMK A01 T02410170  RH  065%=      5-min Rain = 0
KVP1 151557Z 34011KT 24/17 A2987 RMK A01 T02440171  RH  064%=      5-min Rain = 0
KVP1 151558Z 35010KT 24/17 A2987 RMK A01 T02440170  RH  063%=      5-min Rain = 0
KVP1 151559Z 34013KT 24/17 A2987 RMK A01 T02440169  RH  063%=      5-min Rain = 0
KVP1 151600Z 34013KT 24/17 A2987 RMK A01 T02440168  RH  063%=      5-min Rain = 0
KVP1 151601Z 33013KT 24/17 A2987 RMK A01 T02440167  RH  062%=      5-min Rain = 0
KVP1 151602Z 34014KT 24/17 A2987 RMK A01 T02430169  RH  063%=      5-min Rain = 0
KVP1 151603Z 34012KT 24/17 A2987 RMK A01 T02420167  RH  063%=      5-min Rain = 0
KVP1 151604Z 34012KT 24/17 A2987 RMK A01 T02420167  RH  063%=      5-min Rain = 0
KVP1 151605Z 33010KT 24/17 A2987 RMK A01 T02410167  RH  063%=      5-min Rain = 0
KVP1 151606Z 33012KT 24/17 A2987 RMK A01 T02410170  RH  065%=      5-min Rain = 0
KVP1 151607Z 33012KT 24/17 A2987 RMK A01 T02430170  RH  064%=      5-min Rain = 0
KVP1 151608Z 33013KT 24/17 A2987 RMK A01 T02440170  RH  063%=      5-min Rain = 0
KVP1 151609Z 33013KT 25/17 A2987 RMK A01 T02450167  RH  062%=      5-min Rain = 0
KVP1 151610Z 33013KT 24/17 A2987 RMK A01 T02440166  RH  062%=      5-min Rain = 0
KVP1 151611Z 33010KT 24/17 A2987 RMK A01 T02440174  RH  065%=      5-min Rain = 0
KVP1 151612Z 33011KT 25/17 A2987 RMK A01 T02470173  RH  063%=      5-min Rain = 0
KVP1 151613Z 33013KT 25/17 A2987 RMK A01 T02490172  RH  062%=      5-min Rain = 0
KVP1 151614Z 31011KT 25/17 A2987 RMK A01 T02490169  RH  061%=      5-min Rain = 0
KVP1 151615Z 32012KT 25/17 A2987 RMK A01 T02470168  RH  062%=      5-min Rain = 0
KVP1 151616Z 32012KT 25/17 A2987 RMK A01 T02460169  RH  062%=      5-min Rain = 0
KVP1 151617Z 33014KT 25/17 A2987 RMK A01 T02460168  RH  062%=      5-min Rain = 0
KVP1 151618Z 32014KT 25/17 A2987 RMK A01 T02470171  RH  063%=      5-min Rain = 0
KVP1 151619Z 32013G18KT 25/17 A2987 RMK A01 T02490170  RH  061%=      5-min Rain = 0
KVP1 151620Z 33012KT 25/17 A2987 RMK A01 T02520171  RH  061%=      5-min Rain = 0
KVP1 151621Z 34015KT 25/17 A2987 RMK A01 T02530167  RH  059%=      5-min Rain = 0
KVP1 151622Z 33014KT 25/17 A2987 RMK A01 T02530165  RH  058%=      5-min Rain = 0
KVP1 151623Z 33013KT 25/17 A2987 RMK A01 T02520169  RH  060%=      5-min Rain = 0
KVP1 151624Z 34012KT 25/17 A2987 RMK A01 T02520165  RH  058%=      5-min Rain = 0
KVP1 151625Z 33014KT 25/17 A2987 RMK A01 T02520167  RH  059%=      5-min Rain = 0
KVP1 151626Z 33013KT 25/17 A2987 RMK A01 T02530166  RH  058%=      5-min Rain = 0
KVP1 151627Z 34013KT 25/17 A2987 RMK A01 T02520166  RH  059%=      5-min Rain = 0
KVP1 151628Z 33014KT 25/17 A2987 RMK A01 T02520167  RH  059%=      5-min Rain = 0
KVP1 151629Z 34013KT 25/16 A2987 RMK A01 T02520164  RH  058%=      5-min Rain = 0
KVP1 151630Z 34011KT 25/16 A2987 RMK A01 T02530164  RH  058%=      5-min Rain = 0
KVP1 151631Z 34015KT 26/16 A2987 RMK A01 T02550163  RH  057%=      5-min Rain = 0
KVP1 151632Z 35014KT 26/16 A2987 RMK A01 T02550161  RH  056%=      5-min Rain = 0
KVP1 151633Z 33012KT 25/16 A2987 RMK A01 T02540164  RH  057%=      5-min Rain = 0
KVP1 151634Z 33014KT 26/17 A2987 RMK A01 T02550166  RH  058%=      5-min Rain = 0
KVP1 151635Z 32013KT 26/16 A2987 RMK A01 T02570164  RH  056%=      5-min Rain = 0
KVP1 151636Z 33015KT 26/16 A2987 RMK A01 T02580163  RH  056%=      5-min Rain = 0
KVP1 151637Z 34012KT 26/16 A2987 RMK A01 T02580161  RH  055%=      5-min Rain = 0
KVP1 151638Z 36010KT 26/16 A2987 RMK A01 T02580160  RH  055%=      5-min Rain = 0
KVP1 151639Z 35011KT 26/16 A2987 RMK A01 T02580163  RH  056%=      5-min Rain = 0
KVP1 151640Z 35010G17KT 26/16 A2988 RMK A01 T02590162  RH  055%=      5-min Rain = 0
KVP1 151641Z 34015KT 26/16 A2988 RMK A01 T02590161  RH  055%=      5-min Rain = 0
KVP1 151642Z 34012KT 26/16 A2988 RMK A01 T02580157  RH  054%=      5-min Rain = 0
KVP1 151643Z 34010KT 26/16 A2988 RMK A01 T02560157  RH  054%=      5-min Rain = 0
KVP1 151644Z 33012KT 26/16 A2988 RMK A01 T02560164  RH  057%=      5-min Rain = 0
KVP1 151645Z 35011KT 26/16 A2988 RMK A01 T02590164  RH  056%=      5-min Rain = 0
KVP1 151646Z 35012KT 26/16 A2987 RMK A01 T02610160  RH  054%=      5-min Rain = 0
KVP1 151647Z 36011KT 26/16 A2987 RMK A01 T02610158  RH  053%=      5-min Rain = 0
KVP1 151648Z 35010KT 26/16 A2987 RMK A01 T02590159  RH  054%=      5-min Rain = 0
KVP1 151649Z 34009KT 26/16 A2987 RMK A01 T02590163  RH  055%=      5-min Rain = 0
KVP1 151650Z 33011G16KT 26/17 A2987 RMK A01 T02610171  RH  058%=      5-min Rain = 0
KVP1 151651Z 32013KT 26/17 A2987 RMK A01 T02640165  RH  055%=      5-min Rain = 0
KVP1 151652Z 33013KT 26/17 A2987 RMK A01 T02620165  RH  055%=      5-min Rain = 0
KVP1 151653Z 33013KT 26/17 A2987 RMK A01 T02620165  RH  055%=      5-min Rain = 0
KVP1 151654Z 33013KT 26/17 A2987 RMK A01 T02630167  RH  055%=      5-min Rain = 0
KVP1 151655Z 35012KT 26/16 A2987 RMK A01 T02640162  RH  053%=      5-min Rain = 0
KVP1 151656Z 34013KT 26/16 A2987 RMK A01 T02630160  RH  053%=      5-min Rain = 0
KVP1 151657Z 35013G18KT 26/16 A2987 RMK A01 T02610163  RH  055%=      5-min Rain = 0
KVP1 151658Z 35009KT 26/16 A2987 RMK A01 T02620163  RH  054%=      5-min Rain = 0
KVP1 151659Z 36013G18KT 26/16 A2987 RMK A01 T02630164  RH  054%=      5-min Rain = 0
KVP1 151700Z 36011KT 27/16 A2987 RMK A01 T02650163  RH  053%=      5-min Rain = 0
KVP1 151701Z 35009KT 27/16 A2987 RMK A01 T02650164  RH  054%=      5-min Rain = 0
KVP1 151702Z 35009KT 26/16 A2987 RMK A01 T02640163  RH  054%=      5-min Rain = 0
KVP1 151703Z 34012KT 26/17 A2987 RMK A01 T02640170  RH  056%=      5-min Rain = 0
KVP1 151704Z 35010KT 27/17 A2987 RMK A01 T02660168  RH  055%=      5-min Rain = 0
KVP1 151705Z 36011KT 27/17 A2987 RMK A01 T02660165  RH  054%=      5-min Rain = 0
KVP1 151706Z 35011KT 27/17 A2987 RMK A01 T02650168  RH  055%=      5-min Rain = 0
KVP1 151707Z 35009KT 27/17 A2987 RMK A01 T02660169  RH  055%=      5-min Rain = 0
KVP1 151708Z 34013KT 27/17 A2987 RMK A01 T02690168  RH  054%=      5-min Rain = 0
KVP1 151709Z 36010KT 27/17 A2987 RMK A01 T02700168  RH  054%=      5-min Rain = 0
KVP1 151710Z 35011KT 27/17 A2987 RMK A01 T02700165  RH  052%=      5-min Rain = 0
KVP1 151711Z 01009KT 27/17 A2987 RMK A01 T02670165  RH  053%=      5-min Rain = 0
KVP1 151712Z 36010KT 27/17 A2987 RMK A01 T02660167  RH  055%=      5-min Rain = 0
KVP1 151713Z 35012KT 27/17 A2987 RMK A01 T02670172  RH  056%=      5-min Rain = 0
KVP1 151714Z 35009KT 27/17 A2987 RMK A01 T02710174  RH  055%=      5-min Rain = 0
KVP1 151715Z 35010KT 27/17 A2987 RMK A01 T02740170  RH  053%=      5-min Rain = 0
KVP1 151716Z 35009G14KT 27/17 A2987 RMK A01 T02720168  RH  053%=      5-min Rain = 0
KVP1 151717Z 35011KT 27/17 A2987 RMK A01 T02700168  RH  053%=      5-min Rain = 0
KVP1 151718Z 34013KT 27/17 A2987 RMK A01 T02700172  RH  055%=      5-min Rain = 0
KVP1 151719Z 34010KT 27/17 A2987 RMK A01 T02720172  RH  054%=      5-min Rain = 0
KVP1 151720Z 35011KT 27/17 A2987 RMK A01 T02730173  RH  054%=      5-min Rain = 0
KVP1 151721Z 36012G17KT 27/17 A2987 RMK A01 T02730167  RH  052%=      5-min Rain = 0
KVP1 151722Z 01011KT 27/17 A2987 RMK A01 T02720168  RH  053%=      5-min Rain = 0
KVP1 151723Z 02011KT 27/17 A2987 RMK A01 T02730165  RH  052%=      5-min Rain = 0
KVP1 151724Z 01014KT 27/17 A2987 RMK A01 T02740166  RH  052%=      5-min Rain = 0
KVP1 151725Z 01012KT 27/17 A2986 RMK A01 T02740166  RH  051%=      5-min Rain = 0
KVP1 151726Z 00012KT 27/17 A2986 RMK A01 T02740169  RH  053%=      5-min Rain = 0
KVP1 151727Z 35012KT 28/17 A2986 RMK A01 T02760168  RH  052%=      5-min Rain = 0
KVP1 151728Z 36011KT 28/17 A2986 RMK A01 T02770171  RH  052%=      5-min Rain = 0
KVP1 151729Z 34013KT 28/17 A2986 RMK A01 T02780171  RH  052%=      5-min Rain = 0
KVP1 151730Z 35013KT 28/17 A2986 RMK A01 T02780170  RH  052%=      5-min Rain = 0
KVP1 151731Z 36013KT 28/17 A2986 RMK A01 T02780166  RH  051%=      5-min Rain = 0
KVP1 151732Z 35011KT 28/17 A2986 RMK A01 T02780166  RH  051%=      5-min Rain = 0
KVP1 151733Z 36011KT 28/16 A2986 RMK A01 T02790162  RH  049%=      5-min Rain = 0
KVP1 151734Z 35012KT 28/16 A2986 RMK A01 T02770164  RH  050%=      5-min Rain = 0
KVP1 151735Z 34014KT 28/17 A2986 RMK A01 T02780170  RH  052%=      5-min Rain = 0
KVP1 151736Z 35013KT 28/17 A2986 RMK A01 T02810172  RH  052%=      5-min Rain = 0
KVP1 151737Z 35012KT 28/17 A2986 RMK A01 T02810170  RH  051%=      5-min Rain = 0
KVP1 151738Z 35015KT 28/17 A2986 RMK A01 T02790170  RH  051%=      5-min Rain = 0
KVP1 151739Z 35015G20KT 28/17 A2986 RMK A01 T02780168  RH  051%=      5-min Rain = 0
KVP1 151740Z 35015KT 28/17 A2986 RMK A01 T02760168  RH  052%=      5-min Rain = 0
KVP1 151741Z 35013KT 28/17 A2986 RMK A01 T02760170  RH  052%=      5-min Rain = 0
KVP1 151742Z 36012KT 28/17 A2986 RMK A01 T02780171  RH  052%=      5-min Rain = 0
KVP1 151743Z 36011KT 28/17 A2986 RMK A01 T02790169  RH  051%=      5-min Rain = 0
KVP1 151744Z 35013KT 28/17 A2986 RMK A01 T02790167  RH  050%=      5-min Rain = 0
KVP1 151745Z 36009KT 28/17 A2987 RMK A01 T02790172  RH  052%=      5-min Rain = 0
KVP1 151746Z 36013KT 28/17 A2987 RMK A01 T02820169  RH  051%=      5-min Rain = 0
KVP1 151747Z 01012KT 28/17 A2987 RMK A01 T02820170  RH  050%=      5-min Rain = 0
KVP1 151748Z 00013G18KT 28/17 A2987 RMK A01 T02830165  RH  049%=      5-min Rain = 0
KVP1 151749Z 02011KT 28/16 A2987 RMK A01 T02820163  RH  048%=      5-min Rain = 0
KVP1 151750Z 02013KT 28/16 A2987 RMK A01 T02820164  RH  049%=      5-min Rain = 0
KVP1 151751Z 02010KT 28/16 A2987 RMK A01 T02810160  RH  048%=      5-min Rain = 0
KVP1 151752Z 01008KT 28/16 A2987 RMK A01 T02790164  RH  050%=      5-min Rain = 0
KVP1 151753Z 35010KT 28/17 A2987 RMK A01 T02800170  RH  051%=      5-min Rain = 0
KVP1 151754Z 36010KT 28/17 A2987 RMK A01 T02800168  RH  051%=      5-min Rain = 0
KVP1 151755Z 35010KT 28/17 A2987 RMK A01 T02800171  RH  052%=      5-min Rain = 0
KVP1 151756Z 34010KT 28/17 A2988 RMK A01 T02830174  RH  051%=      5-min Rain = 0
KVP1 151757Z 35009G14KT 29/17 A2988 RMK A01 T02850171  RH  050%=      5-min Rain = 0
KVP1 151758Z 00009KT 29/17 A2988 RMK A01 T02850165  RH  048%=      5-min Rain = 0
KVP1 151759Z 01007KT 28/17 A2988 RMK A01 T02820166  RH  049%=      5-min Rain = 0
KVP1 151800Z 36008KT 28/17 A2988 RMK A01 T02830170  RH  050%=      5-min Rain = 0
KVP1 151801Z 35009KT 29/16 A2988 RMK A01 T02850164  RH  048%=      5-min Rain = 0
KVP1 151802Z 36010KT 28/17 A2988 RMK A01 T02840171  RH  050%=      5-min Rain = 0
KVP1 151803Z 01008KT 29/17 A2988 RMK A01 T02850168  RH  049%=      5-min Rain = 0
KVP1 151804Z 00009KT 29/17 A2988 RMK A01 T02870170  RH  049%=      5-min Rain = 0
KVP1 151805Z 02009KT 29/17 A2988 RMK A01 T02890166  RH  047%=      5-min Rain = 0
KVP1 151806Z 01009KT 29/16 A2988 RMK A01 T02860163  RH  047%=      5-min Rain = 0
KVP1 151807Z 01009KT 28/17 A2987 RMK A01 T02830165  RH  049%=      5-min Rain = 0
KVP1 151808Z 36011KT 28/17 A2987 RMK A01 T02830168  RH  050%=      5-min Rain = 0
KVP1 151809Z 00008KT 29/17 A2987 RMK A01 T02850170  RH  050%=      5-min Rain = 0
KVP1 151810Z 36012KT 29/17 A2987 RMK A01 T02870170  RH  049%=      5-min Rain = 0
KVP1 151811Z 36009KT 29/17 A2987 RMK A01 T02870169  RH  049%=      5-min Rain = 0
KVP1 151812Z 02009KT 29/17 A2987 RMK A01 T02870174  RH  050%=      5-min Rain = 0
KVP1 151813Z 36009KT 29/18 A2987 RMK A01 T02900175  RH  050%=      5-min Rain = 0
KVP1 151814Z 01010KT 29/18 A2987 RMK A01 T02910176  RH  050%=      5-min Rain = 0
KVP1 151815Z 01012KT 29/17 A2987 RMK A01 T02920172  RH  049%=      5-min Rain = 0
KVP1 151816Z 01010KT 29/17 A2987 RMK A01 T02890173  RH  050%=      5-min Rain = 0
KVP1 151817Z 01011KT 29/17 A2987 RMK A01 T02890172  RH  049%=      5-min Rain = 0
KVP1 151818Z 02008KT 29/18 A2987 RMK A01 T02900175  RH  050%=      5-min Rain = 0
KVP1 151819Z 35009KT 29/18 A2987 RMK A01 T02910178  RH  051%=      5-min Rain = 0
KVP1 151820Z 34009KT 29/18 A2987 RMK A01 T02920175  RH  049%=      5-min Rain = 0
KVP1 151821Z 34012KT 29/18 A2987 RMK A01 T02930178  RH  050%=      5-min Rain = 0
KVP1 151822Z 34011KT 29/18 A2987 RMK A01 T02930177  RH  050%=      5-min Rain = 0
KVP1 151823Z 35011KT 29/18 A2987 RMK A01 T02920175  RH  049%=      5-min Rain = 0
KVP1 151824Z 35012KT 29/17 A2987 RMK A01 T02900171  RH  049%=      5-min Rain = 0
KVP1 151825Z 36011KT 29/17 A2987 RMK A01 T02880173  RH  050%=      5-min Rain = 0
KVP1 151826Z 34010KT 29/18 A2987 RMK A01 T02880175  RH  050%=      5-min Rain = 0
KVP1 151827Z 36009KT 29/18 A2987 RMK A01 T02910178  RH  051%=      5-min Rain = 0
KVP1 151828Z 01009KT 29/17 A2987 RMK A01 T02920170  RH  048%=      5-min Rain = 0
KVP1 151829Z 01009KT 29/17 A2987 RMK A01 T02890172  RH  049%=      5-min Rain = 0
KVP1 151830Z 01007G14KT 29/17 A2987 RMK A01 T02880173  RH  050%=      5-min Rain = 0
KVP1 151831Z 36010G15KT 29/18 A2987 RMK A01 T02880178  RH  051%=      5-min Rain = 0
KVP1 151832Z 35012KT 29/18 A2987 RMK A01 T02920179  RH  051%=      5-min Rain = 0
KVP1 151833Z 36011KT 29/18 A2987 RMK A01 T02930177  RH  050%=      5-min Rain = 0
KVP1 151834Z 36009KT 29/18 A2987 RMK A01 T02920179  RH  051%=      5-min Rain = 0
KVP1 151835Z 35010KT 29/18 A2987 RMK A01 T02940176  RH  049%=      5-min Rain = 0
KVP1 151836Z 36009KT 29/18 A2987 RMK A01 T02940176  RH  049%=      5-min Rain = 0
KVP1 151837Z 01011KT 29/17 A2987 RMK A01 T02930174  RH  049%=      5-min Rain = 0
KVP1 151838Z 01010KT 29/18 A2987 RMK A01 T02920175  RH  049%=      5-min Rain = 0
KVP1 151839Z 01007KT 29/18 A2987 RMK A01 T02930178  RH  050%=      5-min Rain = 0
KVP1 151840Z 02010KT 30/18 A2987 RMK A01 T02970178  RH  049%=      5-min Rain = 0
KVP1 151841Z 03011KT 30/18 A2987 RMK A01 T02970180  RH  049%=      5-min Rain = 0
KVP1 151842Z 03009KT 30/18 A2987 RMK A01 T02960178  RH  049%=      5-min Rain = 0
KVP1 151843Z 01009KT 29/18 A2987 RMK A01 T02940181  RH  051%=      5-min Rain = 0
KVP1 151844Z 02008KT 30/18 A2987 RMK A01 T02970183  RH  050%=      5-min Rain = 0
KVP1 151845Z 35008KT 30/18 A2987 RMK A01 T02990182  RH  050%=      5-min Rain = 0
KVP1 151846Z 35009KT 30/18 A2987 RMK A01 T02990180  RH  049%=      5-min Rain = 0
KVP1 151847Z 00009KT 30/18 A2987 RMK A01 T02990181  RH  049%=      5-min Rain = 0
KVP1 151848Z 35011KT 30/18 A2988 RMK A01 T02980177  RH  048%=      5-min Rain = 0
KVP1 151849Z 00010KT 29/18 A2988 RMK A01 T02940179  RH  050%=      5-min Rain = 0
KVP1 151850Z 02008KT 29/18 A2988 RMK A01 T02940178  RH  050%=      5-min Rain = 0
KVP1 151851Z 03007KT 29/18 A2987 RMK A01 T02930180  RH  050%=      5-min Rain = 0
KVP1 151852Z 02006KT 29/18 A2987 RMK A01 T02930180  RH  050%=      5-min Rain = 0
KVP1 151853Z 34009KT 29/18 A2987 RMK A01 T02940183  RH  051%=      5-min Rain = 0
KVP1 151854Z 01007KT 30/19 A2987 RMK A01 T02970186  RH  051%=      5-min Rain = 0
KVP1 151855Z 01008KT 30/19 A2987 RMK A01 T02990186  RH  051%=      5-min Rain = 0
KVP1 151856Z 35012KT 30/19 A2987 RMK A01 T03010185  RH  050%=      5-min Rain = 0
KVP1 151857Z 34011KT 30/18 A2987 RMK A01 T03020180  RH  048%=      5-min Rain = 0
KVP1 151858Z 35010KT 30/18 A2987 RMK A01 T03010181  RH  049%=      5-min Rain = 0
KVP1 151859Z 35009KT 30/18 A2987 RMK A01 T02990175  RH  047%=      5-min Rain = 0
KVP1 151900Z 35010KT 30/18 A2987 RMK A01 T02970179  RH  049%=      5-min Rain = 0
KVP1 151901Z 34009KT 30/18 A2987 RMK A01 T02970176  RH  048%=      5-min Rain = 0
KVP1 151902Z 35007KT 30/18 A2987 RMK A01 T02960176  RH  049%=      5-min Rain = 0
KVP1 151903Z 34007KT 30/18 A2987 RMK A01 T02950178  RH  049%=      5-min Rain = 0
KVP1 151904Z 35009KT 30/18 A2987 RMK A01 T02960182  RH  050%=      5-min Rain = 0
KVP1 151905Z 35008KT 30/18 A2987 RMK A01 T02980182  RH  050%=      5-min Rain = 0
KVP1 151906Z 36009KT 30/18 A2987 RMK A01 T03000184  RH  050%=      5-min Rain = 0
KVP1 151907Z 01009KT 30/18 A2987 RMK A01 T03000181  RH  049%=      5-min Rain = 0
KVP1 151908Z 01008KT 30/18 A2987 RMK A01 T03000181  RH  049%=      5-min Rain = 0
KVP1 151909Z 35007KT 30/18 A2987 RMK A01 T03000179  RH  049%=      5-min Rain = 0
KVP1 151910Z 35010KT 30/18 A2987 RMK A01 T02990184  RH  050%=      5-min Rain = 0
KVP1 151911Z 35008KT 30/18 A2987 RMK A01 T03000184  RH  050%=      5-min Rain = 0
KVP1 151912Z 02007KT 30/18 A2987 RMK A01 T03010184  RH  049%=      5-min Rain = 0
KVP1 151913Z 35009KT 30/19 A2987 RMK A01 T03010185  RH  050%=      5-min Rain = 0
KVP1 151914Z 36010KT 30/19 A2987 RMK A01 T03030188  RH  050%=      5-min Rain = 0
KVP1 151915Z 01010KT 31/18 A2987 RMK A01 T03050184  RH  048%=      5-min Rain = 0
KVP1 151916Z 01007KT 30/18 A2987 RMK A01 T03030183  RH  049%=      5-min Rain = 0
KVP1 151917Z 01008KT 30/18 A2987 RMK A01 T03020182  RH  049%=      5-min Rain = 0
KVP1 151918Z 00009KT 30/18 A2987 RMK A01 T02990183  RH  050%=      5-min Rain = 0
KVP1 151919Z 01011KT 30/18 A2987 RMK A01 T02980182  RH  050%=      5-min Rain = 0
KVP1 151920Z 35009KT 30/18 A2987 RMK A01 T02990182  RH  049%=      5-min Rain = 0
KVP1 151921Z 36010KT 30/18 A2987 RMK A01 T02990180  RH  049%=      5-min Rain = 0
KVP1 151922Z 34011KT 30/18 A2987 RMK A01 T02990184  RH  050%=      5-min Rain = 0
KVP1 151923Z 01009KT 30/18 A2987 RMK A01 T02990183  RH  050%=      5-min Rain = 0
KVP1 151924Z 02008KT 30/18 A2987 RMK A01 T02990180  RH  049%=      5-min Rain = 0
KVP1 151925Z 03009KT 30/18 A2987 RMK A01 T02990184  RH  050%=      5-min Rain = 0
KVP1 151926Z 00009KT 30/18 A2987 RMK A01 T03000183  RH  050%=      5-min Rain = 0
KVP1 151927Z 01009KT 30/18 A2987 RMK A01 T03000184  RH  050%=      5-min Rain = 0
KVP1 151928Z 36008KT 30/18 A2987 RMK A01 T03000177  RH  048%=      5-min Rain = 0
KVP1 151929Z 36008KT 30/18 A2987 RMK A01 T02980181  RH  049%=      5-min Rain = 0
KVP1 151930Z 00006KT 30/18 A2987 RMK A01 T02990180  RH  049%=      5-min Rain = 0
KVP1 151931Z 36005KT 30/18 A2987 RMK A01 T02990182  RH  049%=      5-min Rain = 0
KVP1 151932Z 01007KT 30/18 A2987 RMK A01 T03000184  RH  050%=      5-min Rain = 0
KVP1 151933Z 35009KT 30/19 A2987 RMK A01 T03020188  RH  050%=      5-min Rain = 0
KVP1 151934Z 00009KT 30/19 A2987 RMK A01 T03040187  RH  050%=      5-min Rain = 0
KVP1 151935Z 01007KT 31/19 A2987 RMK A01 T03060189  RH  050%=      5-min Rain = 0
KVP1 151936Z 02005KT 31/19 A2987 RMK A01 T03070190  RH  050%=      5-min Rain = 0
KVP1 151937Z 03008KT 31/19 A2987 RMK A01 T03080187  RH  048%=      5-min Rain = 0
KVP1 151938Z 36010G15KT 31/19 A2987 RMK A01 T03070186  RH  049%=      5-min Rain = 0
KVP1 151939Z 00012KT 31/18 A2987 RMK A01 T03060184  RH  048%=      5-min Rain = 0
KVP1 151940Z 01010KT 30/18 A2987 RMK A01 T03030182  RH  048%=      5-min Rain = 0
KVP1 151941Z 03010KT 30/18 A2987 RMK A01 T03030181  RH  048%=      5-min Rain = 0
KVP1 151942Z 03009KT 30/18 A2986 RMK A01 T03030177  RH  047%=      5-min Rain = 0
KVP1 151943Z 01008KT 30/18 A2986 RMK A01 T03010179  RH  048%=      5-min Rain = 0
KVP1 151944Z 35012KT 30/18 A2987 RMK A01 T03020181  RH  048%=      5-min Rain = 0
KVP1 151945Z 01009KT 30/18 A2987 RMK A01 T03010183  RH  049%=      5-min Rain = 0
KVP1 151946Z 01009KT 30/18 A2987 RMK A01 T03030183  RH  049%=      5-min Rain = 0
KVP1 151947Z 01009KT 31/18 A2987 RMK A01 T03050182  RH  048%=      5-min Rain = 0
KVP1 151948Z 00009KT 30/18 A2987 RMK A01 T03040181  RH  048%=      5-min Rain = 0
KVP1 151949Z 36007KT 30/18 A2987 RMK A01 T03010181  RH  049%=      5-min Rain = 0
KVP1 151950Z 35006KT 30/18 A2987 RMK A01 T03020184  RH  049%=      5-min Rain = 0
KVP1 151951Z 01007KT 30/19 A2987 RMK A01 T03040185  RH  049%=      5-min Rain = 0
KVP1 151952Z 01007KT 31/18 A2987 RMK A01 T03050180  RH  047%=      5-min Rain = 0
KVP1 151953Z 36006KT 30/19 A2987 RMK A01 T03030185  RH  049%=      5-min Rain = 0
KVP1 151954Z 36006KT 30/19 A2987 RMK A01 T03030187  RH  050%=      5-min Rain = 0
KVP1 151955Z 00008KT 31/19 A2987 RMK A01 T03060190  RH  050%=      5-min Rain = 0
KVP1 151956Z 01012KT 31/19 A2987 RMK A01 T03080187  RH  049%=      5-min Rain = 0
KVP1 151957Z 35009KT 31/19 A2987 RMK A01 T03070186  RH  049%=      5-min Rain = 0
KVP1 151958Z 02009KT 31/19 A2987 RMK A01 T03060188  RH  049%=      5-min Rain = 0
KVP1 151959Z 03008KT 31/19 A2987 RMK A01 T03060185  RH  048%=      5-min Rain = 0
KVP1 152000Z 03010KT 31/19 A2987 RMK A01 T03050186  RH  049%=      5-min Rain = 0
KVP1 152001Z 02011KT 31/19 A2987 RMK A01 T03060187  RH  049%=      5-min Rain = 0
KVP1 152002Z 01010KT 31/18 A2987 RMK A01 T03070184  RH  048%=      5-min Rain = 0
KVP1 152003Z 01006KT 31/19 A2987 RMK A01 T03050186  RH  049%=      5-min Rain = 0
KVP1 152004Z 36008KT 31/19 A2986 RMK A01 T03060190  RH  050%=      5-min Rain = 0
KVP1 152005Z 36008KT 31/19 A2986 RMK A01 T03100188  RH  048%=      5-min Rain = 0
KVP1 152006Z 00012KT 31/19 A2986 RMK A01 T03110190  RH  049%=      5-min Rain = 0
KVP1 152007Z 36011KT 31/19 A2986 RMK A01 T03100187  RH  048%=      5-min Rain = 0
KVP1 152008Z 01010KT 31/19 A2986 RMK A01 T03100191  RH  049%=      5-min Rain = 0
KVP1 152009Z 01008KT 31/19 A2986 RMK A01 T03100187  RH  048%=      5-min Rain = 0
KVP1 152010Z 02010KT 31/19 A2986 RMK A01 T03090188  RH  048%=      5-min Rain = 0
KVP1 152011Z 02010KT 31/19 A2986 RMK A01 T03090185  RH  047%=      5-min Rain = 0
KVP1 152012Z 02008KT 31/18 A2986 RMK A01 T03070181  RH  047%=      5-min Rain = 0
KVP1 152013Z 03009KT 31/19 A2986 RMK A01 T03060190  RH  050%=      5-min Rain = 0
KVP1 152014Z 03012KT 31/19 A2986 RMK A01 T03090189  RH  049%=      5-min Rain = 0
KVP1 152015Z 03011KT 31/19 A2986 RMK A01 T03090186  RH  048%=      5-min Rain = 0
KVP1 152016Z 01009G14KT 31/19 A2986 RMK A01 T03080188  RH  049%=      5-min Rain = 0
KVP1 152017Z 00010KT 31/19 A2986 RMK A01 T03090189  RH  049%=      5-min Rain = 0
KVP1 152018Z 02013KT 31/19 A2986 RMK A01 T03110185  RH  047%=      5-min Rain = 0
KVP1 152019Z 01011KT 31/18 A2986 RMK A01 T03090183  RH  047%=      5-min Rain = 0
KVP1 152020Z 00008G13KT 31/19 A2986 RMK A01 T03080187  RH  048%=      5-min Rain = 0
KVP1 152021Z 01008G13KT 31/19 A2986 RMK A01 T03090185  RH  048%=      5-min Rain = 0
KVP1 152022Z 03013KT 31/18 A2986 RMK A01 T03120184  RH  047%=      5-min Rain = 0
KVP1 152023Z 03011KT 31/18 A2986 RMK A01 T03120183  RH  046%=      5-min Rain = 0
KVP1 152024Z 03008KT 31/18 A2986 RMK A01 T03100184  RH  047%=      5-min Rain = 0
KVP1 152025Z 03013KT 31/18 A2986 RMK A01 T03110183  RH  047%=      5-min Rain = 0
KVP1 152026Z 03012KT 31/18 A2986 RMK A01 T03110183  RH  047%=      5-min Rain = 0
KVP1 152027Z 03007KT 31/19 A2986 RMK A01 T03080187  RH  048%=      5-min Rain = 0
KVP1 152028Z 03008KT 31/19 A2986 RMK A01 T03090188  RH  049%=      5-min Rain = 0
KVP1 152029Z 02014KT 31/19 A2986 RMK A01 T03110188  RH  048%=      5-min Rain = 0
KVP1 152030Z 01012KT 31/19 A2986 RMK A01 T03100187  RH  048%=      5-min Rain = 0
KVP1 152031Z 01013KT 31/19 A2986 RMK A01 T03100186  RH  048%=      5-min Rain = 0
KVP1 152032Z 01010G15KT 31/18 A2986 RMK A01 T03090181  RH  046%=      5-min Rain = 0
KVP1 152033Z 03009KT 31/18 A2986 RMK A01 T03060183  RH  048%=      5-min Rain = 0
KVP1 152034Z 01007KT 31/18 A2986 RMK A01 T03060184  RH  048%=      5-min Rain = 0
KVP1 152035Z 36007KT 31/18 A2986 RMK A01 T03080183  RH  047%=      5-min Rain = 0
KVP1 152036Z 01006KT 31/19 A2986 RMK A01 T03090185  RH  048%=      5-min Rain = 0
KVP1 152037Z 36008G14KT 31/19 A2986 RMK A01 T03110187  RH  048%=      5-min Rain = 0
KVP1 152038Z 36010KT 31/18 A2986 RMK A01 T03120183  RH  046%=      5-min Rain = 0
KVP1 152039Z 01008KT 31/18 A2986 RMK A01 T03110180  RH  046%=      5-min Rain = 0
KVP1 152040Z 02010KT 31/18 A2986 RMK A01 T03090180  RH  046%=      5-min Rain = 0
KVP1 152041Z 01011KT 31/18 A2986 RMK A01 T03080182  RH  047%=      5-min Rain = 0
KVP1 152042Z 01007KT 31/18 A2986 RMK A01 T03060180  RH  047%=      5-min Rain = 0
KVP1 152043Z 01007G13KT 31/19 A2985 RMK A01 T03060185  RH  048%=      5-min Rain = 0
KVP1 152044Z 01010KT 31/19 A2986 RMK A01 T03100185  RH  047%=      5-min Rain = 0
KVP1 152045Z 02013KT 31/19 A2986 RMK A01 T03120185  RH  047%=      5-min Rain = 0
KVP1 152046Z 01013KT 31/18 A2986 RMK A01 T03110180  RH  045%=      5-min Rain = 0
KVP1 152047Z 01013KT 31/18 A2986 RMK A01 T03090178  RH  046%=      5-min Rain = 0
KVP1 152048Z 01012KT 31/18 A2986 RMK A01 T03060178  RH  046%=      5-min Rain = 0
KVP1 152049Z 01009KT 31/18 A2986 RMK A01 T03050176  RH  046%=      5-min Rain = 0
KVP1 152050Z 00007KT 31/18 A2986 RMK A01 T03050180  RH  047%=      5-min Rain = 0
KVP1 152051Z 02009KT 31/18 A2986 RMK A01 T03090184  RH  047%=      5-min Rain = 0
KVP1 152052Z 03009KT 31/19 A2985 RMK A01 T03110186  RH  047%=      5-min Rain = 0
KVP1 152053Z 01010KT 31/18 A2985 RMK A01 T03120184  RH  046%=      5-min Rain = 0
KVP1 152054Z 01009KT 31/19 A2985 RMK A01 T03120185  RH  047%=      5-min Rain = 0
KVP1 152055Z 01011KT 31/19 A2985 RMK A01 T03120186  RH  047%=      5-min Rain = 0
KVP1 152056Z 01012KT 31/19 A2985 RMK A01 T03110185  RH  047%=      5-min Rain = 0
KVP1 152057Z 03013KT 31/19 A2985 RMK A01 T03100190  RH  049%=      5-min Rain = 0
KVP1 152058Z 01009KT 31/19 A2985 RMK A01 T03130189  RH  048%=      5-min Rain = 0
KVP1 152059Z 03011KT 32/19 A2985 RMK A01 T03150190  RH  048%=      5-min Rain = 0
KVP1 152100Z 02014KT 32/19 A2985 RMK A01 T03150187  RH  047%=      5-min Rain = 0
KVP1 152101Z 04011KT 31/19 A2985 RMK A01 T03140185  RH  046%=      5-min Rain = 0
KVP1 152102Z 02009KT 31/19 A2985 RMK A01 T03130187  RH  047%=      5-min Rain = 0
KVP1 152103Z 02011KT 31/19 A2985 RMK A01 T03120188  RH  048%=      5-min Rain = 0
KVP1 152104Z 00009KT 31/18 A2985 RMK A01 T03130184  RH  046%=      5-min Rain = 0
KVP1 152105Z 02008KT 31/18 A2985 RMK A01 T03120183  RH  046%=      5-min Rain = 0
KVP1 152106Z 03009KT 31/19 A2985 RMK A01 T03110185  RH  047%=      5-min Rain = 0
KVP1 152107Z 03009KT 31/18 A2984 RMK A01 T03120183  RH  046%=      5-min Rain = 0
KVP1 152108Z 03011KT 31/19 A2984 RMK A01 T03120186  RH  047%=      5-min Rain = 0
KVP1 152109Z 02009KT 31/18 A2984 RMK A01 T03120182  RH  046%=      5-min Rain = 0
KVP1 152110Z 02010KT 31/18 A2984 RMK A01 T03110184  RH  047%=      5-min Rain = 0
KVP1 152111Z 02012KT 31/19 A2984 RMK A01 T03110185  RH  047%=      5-min Rain = 0
KVP1 152112Z 03009KT 31/19 A2984 RMK A01 T03120186  RH  047%=      5-min Rain = 0
KVP1 152113Z 04011KT 31/19 A2984 RMK A01 T03120186  RH  047%=      5-min Rain = 0
KVP1 152114Z 03012KT 31/19 A2984 RMK A01 T03110187  RH  048%=      5-min Rain = 0
KVP1 152115Z 03011KT 31/19 A2984 RMK A01 T03120188  RH  048%=      5-min Rain = 0
KVP1 152116Z 02010KT 32/19 A2984 RMK A01 T03160187  RH  047%=      5-min Rain = 0
KVP1 152117Z 02008KT 32/19 A2984 RMK A01 T03160187  RH  046%=      5-min Rain = 0
KVP1 152118Z 03010G16KT 32/19 A2984 RMK A01 T03150188  RH  047%=      5-min Rain = 0
KVP1 152119Z 03011KT 31/19 A2984 RMK A01 T03130185  RH  046%=      5-min Rain = 0
KVP1 152120Z 03010KT 31/19 A2983 RMK A01 T03110186  RH  047%=      5-min Rain = 0
KVP1 152121Z 04012KT 31/19 A2983 RMK A01 T03130186  RH  047%=      5-min Rain = 0
KVP1 152122Z 04014KT 31/19 A2983 RMK A01 T03140185  RH  046%=      5-min Rain = 0
KVP1 152123Z 04012KT 31/19 A2983 RMK A01 T03140185  RH  046%=      5-min Rain = 0
KVP1 152124Z 03013KT 31/18 A2983 RMK A01 T03140183  RH  046%=      5-min Rain = 0
KVP1 152125Z 03010KT 31/18 A2983 RMK A01 T03120182  RH  046%=      5-min Rain = 0
KVP1 152126Z 03010G16KT 31/19 A2983 RMK A01 T03130189  RH  048%=      5-min Rain = 0
KVP1 152127Z 03011G16KT 32/19 A2983 RMK A01 T03170188  RH  046%=      5-min Rain = 0
KVP1 152128Z 04014G20KT 32/19 A2983 RMK A01 T03150188  RH  047%=      5-min Rain = 0
KVP1 152129Z 04015KT 31/18 A2983 RMK A01 T03120180  RH  045%=      5-min Rain = 0
KVP1 152130Z 05014KT 31/18 A2983 RMK A01 T03080175  RH  045%=      5-min Rain = 0
KVP1 152131Z 05014KT 31/18 A2983 RMK A01 T03050177  RH  046%=      5-min Rain = 0
KVP1 152132Z 05013KT 30/17 A2983 RMK A01 T03020174  RH  046%=      5-min Rain = 0
KVP1 152133Z 05013KT 30/18 A2983 RMK A01 T03010177  RH  047%=      5-min Rain = 0
KVP1 152134Z 04011KT 30/18 A2983 RMK A01 T03000176  RH  047%=      5-min Rain = 0
KVP1 152135Z 04011KT 30/18 A2983 RMK A01 T03000178  RH  048%=      5-min Rain = 0
KVP1 152136Z 03012KT 30/17 A2983 RMK A01 T02990174  RH  047%=      5-min Rain = 0
KVP1 152137Z 04009KT 30/17 A2983 RMK A01 T02980174  RH  047%=      5-min Rain = 0
KVP1 152138Z 04012KT 30/18 A2983 RMK A01 T02980176  RH  048%=      5-min Rain = 0
KVP1 152139Z 05010G15KT 30/17 A2983 RMK A01 T02970174  RH  048%=      5-min Rain = 0
KVP1 152140Z 04010KT 30/17 A2983 RMK A01 T02960174  RH  048%=      5-min Rain = 0
KVP1 152141Z 03013KT 30/17 A2983 RMK A01 T02960170  RH  047%=      5-min Rain = 0
KVP1 152142Z 04009KT 30/17 A2983 RMK A01 T02950168  RH  046%=      5-min Rain = 0
KVP1 152143Z 03010KT 29/17 A2983 RMK A01 T02940173  RH  048%=      5-min Rain = 0
KVP1 152144Z 04011KT 29/17 A2983 RMK A01 T02940173  RH  048%=      5-min Rain = 0
KVP1 152145Z 03010KT 29/17 A2983 RMK A01 T02940173  RH  048%=      5-min Rain = 0
KVP1 152146Z 03009KT 29/17 A2983 RMK A01 T02930173  RH  049%=      5-min Rain = 0
KVP1 152147Z 04011G16KT 29/17 A2983 RMK A01 T02930172  RH  048%=      5-min Rain = 0
KVP1 152148Z 04010KT 29/17 A2983 RMK A01 T02920174  RH  049%=      5-min Rain = 0
KVP1 152149Z 04011KT 29/17 A2983 RMK A01 T02910172  RH  049%=      5-min Rain = 0
KVP1 152150Z 05012KT 29/17 A2983 RMK A01 T02900171  RH  049%=      5-min Rain = 0
KVP1 152151Z 05012KT 29/17 A2983 RMK A01 T02890170  RH  049%=      5-min Rain = 0
KVP1 152152Z 05010KT 29/17 A2984 RMK A01 T02880171  RH  049%=      5-min Rain = 0
KVP1 152153Z 04010KT 29/17 A2984 RMK A01 T02870171  RH  049%=      5-min Rain = 0
KVP1 152154Z 04012KT 29/17 A2984 RMK A01 T02860171  RH  050%=      5-min Rain = 0
KVP1 152155Z 05013KT 29/17 A2984 RMK A01 T02850171  RH  050%=      5-min Rain = 0
KVP1 152156Z 05012KT 28/17 A2984 RMK A01 T02840170  RH  050%=      5-min Rain = 0
KVP1 152157Z 05010KT 28/17 A2984 RMK A01 T02840170  RH  050%=      5-min Rain = 0
KVP1 152158Z 05010KT 28/17 A2984 RMK A01 T02830171  RH  051%=      5-min Rain = 0
KVP1 152159Z 05012KT 28/17 A2983 RMK A01 T02820171  RH  051%=      5-min Rain = 0
KVP1 152200Z 04010KT 28/17 A2983 RMK A01 T02820170  RH  051%=      5-min Rain = 0
KVP1 152201Z 05012KT 28/17 A2983 RMK A01 T02810170  RH  051%=      5-min Rain = 0
KVP1 152202Z 05012KT 28/17 A2983 RMK A01 T02800169  RH  051%=      5-min Rain = 0
KVP1 152203Z 05010KT 28/17 A2983 RMK A01 T02800171  RH  052%=      5-min Rain = 0
KVP1 152204Z 05011KT 28/17 A2983 RMK A01 T02790171  RH  052%=      5-min Rain = 0
KVP1 152205Z 05010KT 28/17 A2983 RMK A01 T02790170  RH  052%=      5-min Rain = 0
KVP1 152206Z 05010KT 28/17 A2983 RMK A01 T02780171  RH  052%=      5-min Rain = 0
KVP1 152207Z 05010KT 28/17 A2983 RMK A01 T02770171  RH  052%=      5-min Rain = 0
KVP1 152208Z 05010KT 28/17 A2983 RMK A01 T02770171  RH  053%=      5-min Rain = 0
KVP1 152209Z 05009KT 28/17 A2984 RMK A01 T02770171  RH  052%=      5-min Rain = 0
KVP1 152210Z 05008KT 28/17 A2984 RMK A01 T02770171  RH  053%=      5-min Rain = 0
KVP1 152211Z 04008KT 28/17 A2984 RMK A01 T02760172  RH  053%=      5-min Rain = 0
KVP1 152212Z 05007KT 27/17 A2984 RMK A01 T02740171  RH  053%=      5-min Rain = 0
KVP1 152213Z 05007KT 27/17 A2985 RMK A01 T02740171  RH  054%=      5-min Rain = 0
KVP1 152214Z 05007KT 27/17 A2985 RMK A01 T02730171  RH  054%=      5-min Rain = 0
KVP1 152215Z 04006KT 27/17 A2985 RMK A01 T02730172  RH  054%=      5-min Rain = 0
KVP1 152216Z 04006KT 27/17 A2985 RMK A01 T02720172  RH  054%=      5-min Rain = 0
KVP1 152217Z 04005KT 27/17 A2985 RMK A01 T02710173  RH  055%=      5-min Rain = 0
KVP1 152218Z 04006KT 27/17 A2985 RMK A01 T02700173  RH  055%=      5-min Rain = 0
KVP1 152219Z 03007KT 27/17 A2985 RMK A01 T02700172  RH  055%=      5-min Rain = 0
KVP1 152220Z 04005KT 27/17 A2986 RMK A01 T02700171  RH  055%=      5-min Rain = 0
KVP1 152221Z 04005KT 27/17 A2986 RMK A01 T02700172  RH  055%=      5-min Rain = 0
KVP1 152222Z 04005KT 27/17 A2986 RMK A01 T02700172  RH  055%=      5-min Rain = 0
KVP1 152223Z 04004KT 27/17 A2986 RMK A01 T02700172  RH  055%=      5-min Rain = 0
KVP1 152224Z 04003KT 27/17 A2987 RMK A01 T02700173  RH  055%=      5-min Rain = 0
KVP1 152225Z 05004KT 27/17 A2987 RMK A01 T02690174  RH  056%=      5-min Rain = 0
KVP1 152226Z 05005KT 27/17 A2987 RMK A01 T02690174  RH  056%=      5-min Rain = 0
KVP1 152227Z 07003KT 27/17 A2987 RMK A01 T02680174  RH  056%=      5-min Rain = 0
KVP1 152228Z 06003KT 27/18 A2988 RMK A01 T02680175  RH  057%=      5-min Rain = 0
KVP1 152229Z 06003KT 27/17 A2988 RMK A01 T02680174  RH  056%=      5-min Rain = 0
KVP1 152230Z 06003KT 27/17 A2988 RMK A01 T02670174  RH  057%=      5-min Rain = 0
KVP1 152231Z 07004KT 27/18 A2988 RMK A01 T02680175  RH  057%=      5-min Rain = 0
KVP1 152232Z 08004KT 27/18 A2989 RMK A01 T02680177  RH  057%=      5-min Rain = 0
KVP1 152233Z 09007KT 27/18 A2989 RMK A01 T02670175  RH  057%=      5-min Rain = 0
KVP1 152234Z 09008KT 27/17 A2989 RMK A01 T02680173  RH  056%=      5-min Rain = 0
KVP1 152235Z 09011KT 27/17 A2989 RMK A01 T02690174  RH  056%=      5-min Rain = 0
KVP1 152236Z 09019KT 27/17 A2989 RMK A01 T02700173  RH  055%=      5-min Rain = 0
KVP1 152237Z 06024G30KT 27/17 A2988 RMK A01 T02720166  RH  052%=      5-min Rain = 0
KVP1 152238Z 06020KT 28/10 A2987 RMK A01 T02760101  RH  034%=      5-min Rain = 0
KVP1 152239Z 06021G28KT 28/08 A2987 RMK A01 T02800076  RH  028%=      5-min Rain = 0
KVP1 152240Z 05018G26KT 28/04 A2988 RMK A01 T02840038  RH  021%=      5-min Rain = 0
KVP1 152241Z 11014G19KT 29/04 A2989 RMK A01 T02900038  RH  020%=      5-min Rain = 0
KVP1 152242Z 11013G18KT 29/09 A299 RMK A01 T02900085  RH  028%=      5-min Rain = 0
KVP1 152243Z 13012KT 29/12 A299 RMK A01 T02880120  RH  036%=      5-min Rain = 0
KVP1 152244Z 14011G16KT 28/10 A2989 RMK A01 T02840096  RH  031%=      5-min Rain = 0
KVP1 152245Z 17017KT 28/11 A2989 RMK A01 T02830111  RH  034%=      5-min Rain = 0
KVP1 152246Z 13022G28KT 28/11 A2989 RMK A01 T02830112  RH  035%=      5-min Rain = 0
KVP1 152247Z 13018KT 28/12 A2989 RMK A01 T02830122  RH  037%=      5-min Rain = 0
KVP1 152248Z 13015KT 28/14 A2989 RMK A01 T02820139  RH  041%=      5-min Rain = 0
KVP1 152249Z 12024KT 28/13 A2989 RMK A01 T02800126  RH  039%=      5-min Rain = 0
KVP1 152250Z 13019G27KT 28/09 A2989 RMK A01 T02790093  RH  031%=      5-min Rain = 0
KVP1 152251Z 12028G33KT 28/08 A2989 RMK A01 T02790078  RH  028%=      5-min Rain = 0
KVP1 152252Z 12024G30KT 28/05 A2988 RMK A01 T02770051  RH  023%=      5-min Rain = 0
KVP1 152253Z 12024KT 28/05 A2988 RMK A01 T02760045  RH  023%=      5-min Rain = 0
KVP1 152254Z 14024G30KT 28/05 A2988 RMK A01 T02760049  RH  023%=      5-min Rain = 0
KVP1 152255Z 12024KT 28/05 A2988 RMK A01 T02760048  RH  023%=      5-min Rain = 0
KVP1 152256Z 12020KT 28/05 A2988 RMK A01 T02770046  RH  023%=      5-min Rain = 0
KVP1 152257Z 12019KT 28/04 A2988 RMK A01 T02780041  RH  022%=      5-min Rain = 0
KVP1 152258Z 14014KT 28/05 A2989 RMK A01 T02780046  RH  023%=      5-min Rain = 0
KVP1 152259Z 19015G22KT 28/05 A2988 RMK A01 T02760053  RH  024%=      5-min Rain = 0
KVP1 152300Z 22020G26KT 28/05 A2988 RMK A01 T02760049  RH  023%=      5-min Rain = 0
KVP1 152301Z 15011KT 28/05 A2989 RMK A01 T02790051  RH  023%=      5-min Rain = 0
KVP1 152302Z 14011KT 28/05 A2988 RMK A01 T02790051  RH  023%=      5-min Rain = 0
KVP1 152303Z 13014KT 28/05 A2988 RMK A01 T02770052  RH  024%=      5-min Rain = 0
KVP1 152304Z 12014KT 27/05 A2988 RMK A01 T02740051  RH  024%=      5-min Rain = 0
KVP1 152305Z 12014KT 27/05 A2988 RMK A01 T02730047  RH  023%=      5-min Rain = 0
KVP1 152306Z 13011KT 27/05 A2987 RMK A01 T02740049  RH  024%=      5-min Rain = 0
KVP1 152307Z 13024G29KT 27/05 A2988 RMK A01 T02740052  RH  024%=      5-min Rain = 0
KVP1 152308Z 13024KT 27/05 A2988 RMK A01 T02730048  RH  024%=      5-min Rain = 0
KVP1 152309Z 13019KT 27/05 A2988 RMK A01 T02740050  RH  024%=      5-min Rain = 0
KVP1 152310Z 14020G27KT 27/05 A2989 RMK A01 T02740052  RH  024%=      5-min Rain = 0
KVP1 152311Z 13023G29KT 27/05 A2989 RMK A01 T02740050  RH  024%=      5-min Rain = 0
KVP1 152312Z 13021G28KT 28/05 A2989 RMK A01 T02750047  RH  023%=      5-min Rain = 0
KVP1 152313Z 14019KT 28/05 A299 RMK A01 T02770051  RH  024%=      5-min Rain = 0
KVP1 152314Z 12016KT 28/06 A299 RMK A01 T02770059  RH  025%=      5-min Rain = 0
KVP1 152315Z 09017KT 28/06 A299 RMK A01 T02750063  RH  026%=      5-min Rain = 0
KVP1 152316Z 10013KT 27/08 A299 RMK A01 T02720078  RH  029%=      5-min Rain = 0
KVP1 152317Z 09009KT 27/09 A2991 RMK A01 T02650087  RH  033%=      5-min Rain = 0
KVP1 152318Z 09006KT 26/09 A2991 RMK A01 T02580090  RH  034%=      5-min Rain = 0
KVP1 152319Z 06003KT 26/08 A2991 RMK A01 T02550081  RH  033%=      5-min Rain = 0
KVP1 152320Z 19002KT 26/07 A2992 RMK A01 T02560065  RH  030%=      5-min Rain = 0
KVP1 152321Z 27009G21KT 26/08 A2994 RMK A01 T02600081  RH  032%=      5-min Rain = 0
KVP1 152322Z 29022KT 25/12 A2995 RMK A01 T02490116  RH  043%=      5-min Rain = 0.01
KVP1 152323Z 28021G28KT 23/12 A2995 RMK A01 T02250124  RH  053%=      5-min Rain = 0
KVP1 152324Z 29023G30KT 21/12 A2995 RMK A01 T02100122  RH  057%=      5-min Rain = 0
KVP1 152325Z 29023G32KT 21/13 A2994 RMK A01 T02050127  RH  061%=      5-min Rain = 0.01
KVP1 152326Z 29031G40KT 20/13 A2994 RMK A01 T01990132  RH  065%=      5-min Rain = 0
KVP1 152327Z 29031G40KT 19/13 A2994 RMK A01 T01940132  RH  067%=      5-min Rain = 0.01
KVP1 152328Z 28026G33KT 19/13 A2995 RMK A01 T01890133  RH  070%=      5-min Rain = 0.01
KVP1 152329Z 28027G36KT 19/13 A2995 RMK A01 T01850133  RH  072%=      5-min Rain = 0
KVP1 152330Z 28026G33KT 18/13 A2995 RMK A01 T01830130  RH  071%=      5-min Rain = 0.01
KVP1 152331Z 29029G34KT 18/13 A2995 RMK A01 T01800129  RH  072%=      5-min Rain = 0
KVP1 152332Z 30026G33KT 18/12 A2995 RMK A01 T01780124  RH  071%=      5-min Rain = 0
KVP1 152333Z 29020G25KT 18/13 A2996 RMK A01 T01760128  RH  074%=      5-min Rain = 0.01
KVP1 152334Z 29027G35KT 17/13 A2996 RMK A01 T01730126  RH  074%=      5-min Rain = 0
KVP1 152335Z 29028KT 17/12 A2996 RMK A01 T01740118  RH  069%=      5-min Rain = 0
KVP1 152336Z 30028KT 18/12 A2996 RMK A01 T01760119  RH  069%=      5-min Rain = 0
KVP1 152337Z 30026KT 18/12 A2996 RMK A01 T01750119  RH  070%=      5-min Rain = 0
KVP1 152338Z 30023KT 17/12 A2997 RMK A01 T01730117  RH  069%=      5-min Rain = 0
KVP1 152339Z 30016KT 17/12 A2997 RMK A01 T01740118  RH  070%=      5-min Rain = 0.01
KVP1 152340Z 32015KT 17/12 A2996 RMK A01 T01730118  RH  070%=      5-min Rain = 0
KVP1 152341Z 34014KT 17/12 A2995 RMK A01 T01740115  RH  068%=      5-min Rain = 0
KVP1 152342Z 35012KT 18/12 A2994 RMK A01 T01760117  RH  068%=      5-min Rain = 0
KVP1 152343Z 00012KT 18/12 A2993 RMK A01 T01790115  RH  066%=      5-min Rain = 0
KVP1 152344Z 36015KT 18/11 A2992 RMK A01 T01830113  RH  064%=      5-min Rain = 0
KVP1 152345Z 01015KT 19/11 A2992 RMK A01 T01860110  RH  061%=      5-min Rain = 0
KVP1 152346Z 00015KT 19/11 A2991 RMK A01 T01900112  RH  060%=      5-min Rain = 0
KVP1 152347Z 02014KT 19/11 A299 RMK A01 T01930107  RH  058%=      5-min Rain = 0
KVP1 152348Z 02014KT 20/10 A299 RMK A01 T01980102  RH  054%=      5-min Rain = 0
KVP1 152349Z 03010KT 20/11 A2989 RMK A01 T01980110  RH  057%=      5-min Rain = 0
KVP1 152350Z 04009KT 19/12 A2989 RMK A01 T01940117  RH  061%=      5-min Rain = 0
KVP1 152351Z 04011KT 19/12 A2989 RMK A01 T01880118  RH  064%=      5-min Rain = 0
KVP1 152352Z 03014KT 18/12 A2988 RMK A01 T01840118  RH  066%=      5-min Rain = 0
KVP1 152353Z 02014KT 18/12 A2988 RMK A01 T01830115  RH  064%=      5-min Rain = 0
KVP1 152354Z 01015KT 19/11 A2989 RMK A01 T01860112  RH  062%=      5-min Rain = 0
KVP1 152355Z 01018KT 19/11 A2989 RMK A01 T01870114  RH  062%=      5-min Rain = 0
KVP1 152356Z 01017KT 19/11 A299 RMK A01 T01890114  RH  062%=      5-min Rain = 0
KVP1 152357Z 36019G28KT 19/12 A299 RMK A01 T01890117  RH  063%=      5-min Rain = 0
KVP1 152358Z 35025G32KT 19/12 A299 RMK A01 T01890117  RH  063%=      5-min Rain = 0
KVP1 152359Z 35025G30KT 19/12 A2991 RMK A01 T01860120  RH  065%=      5-min Rain = 0
KVP1 160000Z 00020G26KT 18/12 A2992 RMK A01 T01830120  RH  067%=      5-min Rain = 0
KVP1 160001Z 01018G26KT 18/12 A2991 RMK A01 T01820121  RH  067%=      5-min Rain = 0
KVP1 160002Z 01019G24KT 18/12 A2991 RMK A01 T01820119  RH  067%=      5-min Rain = 0
KVP1 160003Z 02020KT 18/12 A2991 RMK A01 T01830117  RH  065%=      5-min Rain = 0
KVP1 160004Z 02019KT 19/12 A2991 RMK A01 T01850117  RH  065%=      5-min Rain = 0
KVP1 160005Z 02017G22KT 18/12 A2991 RMK A01 T01840121  RH  067%=      5-min Rain = 0
KVP1 160006Z 02018KT 18/12 A2991 RMK A01 T01830122  RH  068%=      5-min Rain = 0
KVP1 160007Z 02017KT 18/12 A2991 RMK A01 T01820124  RH  069%=      5-min Rain = 0
KVP1 160008Z 03017KT 18/12 A2991 RMK A01 T01810122  RH  069%=      5-min Rain = 0
KVP1 160009Z 03018KT 18/12 A2991 RMK A01 T01810122  RH  068%=      5-min Rain = 0
KVP1 160010Z 03017G23KT 18/12 A2991 RMK A01 T01810124  RH  069%=      5-min Rain = 0
KVP1 160011Z 02017KT 18/13 A2991 RMK A01 T01800125  RH  070%=      5-min Rain = 0
KVP1 160012Z 01018KT 18/13 A2991 RMK A01 T01790125  RH  071%=      5-min Rain = 0
KVP1 160013Z 02020G25KT 18/12 A2991 RMK A01 T01780124  RH  070%=      5-min Rain = 0
KVP1 160014Z 02020G27KT 18/12 A2991 RMK A01 T01800121  RH  069%=      5-min Rain = 0
KVP1 160015Z 01021G28KT 18/12 A2991 RMK A01 T01820119  RH  067%=      5-min Rain = 0
KVP1 160016Z 02022G27KT 19/12 A2991 RMK A01 T01850117  RH  065%=      5-min Rain = 0
KVP1 160017Z 02020KT 19/12 A2992 RMK A01 T01870119  RH  064%=      5-min Rain = 0
KVP1 160018Z 02017KT 19/12 A2992 RMK A01 T01870122  RH  066%=      5-min Rain = 0
KVP1 160019Z 02018KT 19/12 A2992 RMK A01 T01850119  RH  065%=      5-min Rain = 0
KVP1 160020Z 03020G26KT 19/12 A2992 RMK A01 T01870118  RH  064%=      5-min Rain = 0
KVP1 160021Z 03016G22KT 19/12 A2992 RMK A01 T01870117  RH  063%=      5-min Rain = 0
KVP1 160022Z 02018G23KT 19/12 A2992 RMK A01 T01880116  RH  063%=      5-min Rain = 0
KVP1 160023Z 02020G28KT 19/12 A2991 RMK A01 T01880119  RH  064%=      5-min Rain = 0
KVP1 160024Z 02019G25KT 19/12 A2991 RMK A01 T01850118  RH  065%=      5-min Rain = 0
KVP1 160025Z 03020KT 18/12 A2991 RMK A01 T01810117  RH  066%=      5-min Rain = 0
KVP1 160026Z 02017KT 18/12 A2991 RMK A01 T01780119  RH  068%=      5-min Rain = 0
KVP1 160027Z 02022KT 18/12 A2991 RMK A01 T01760120  RH  070%=      5-min Rain = 0
KVP1 160028Z 02022KT 18/12 A2991 RMK A01 T01750119  RH  069%=      5-min Rain = 0
KVP1 160029Z 02019G24KT 17/12 A2991 RMK A01 T01730119  RH  071%=      5-min Rain = 0
KVP1 160030Z 02017G25KT 17/12 A2991 RMK A01 T01710120  RH  072%=      5-min Rain = 0
KVP1 160031Z 02017KT 17/12 A2991 RMK A01 T01690121  RH  073%=      5-min Rain = 0
KVP1 160032Z 02017KT 17/12 A2991 RMK A01 T01680121  RH  074%=      5-min Rain = 0
KVP1 160033Z 02016KT 17/12 A2992 RMK A01 T01670121  RH  074%=      5-min Rain = 0
KVP1 160034Z 02015G22KT 17/12 A2992 RMK A01 T01670121  RH  074%=      5-min Rain = 0
KVP1 160035Z 02015G20KT 17/12 A2992 RMK A01 T01670121  RH  074%=      5-min Rain = 0
KVP1 160036Z 02014KT 17/12 A2992 RMK A01 T01670122  RH  074%=      5-min Rain = 0
KVP1 160037Z 02015KT 17/12 A2992 RMK A01 T01670120  RH  074%=      5-min Rain = 0
KVP1 160038Z 03016KT 17/12 A2992 RMK A01 T01680120  RH  073%=      5-min Rain = 0
KVP1 160039Z 03013KT 17/12 A2993 RMK A01 T01690120  RH  073%=      5-min Rain = 0
KVP1 160040Z 02016KT 17/12 A2993 RMK A01 T01690119  RH  072%=      5-min Rain = 0
KVP1 160041Z 03013KT 17/12 A2993 RMK A01 T01710118  RH  071%=      5-min Rain = 0
KVP1 160042Z 03012KT 17/12 A2993 RMK A01 T01720119  RH  071%=      5-min Rain = 0
KVP1 160043Z 03013KT 17/12 A2993 RMK A01 T01720119  RH  071%=      5-min Rain = 0
KVP1 160044Z 04013KT 17/12 A2993 RMK A01 T01720118  RH  070%=      5-min Rain = 0
KVP1 160045Z 04013KT 17/12 A2993 RMK A01 T01730118  RH  070%=      5-min Rain = 0
KVP1 160046Z 04012KT 17/12 A2993 RMK A01 T01740116  RH  069%=      5-min Rain = 0
KVP1 160047Z 03012KT 18/12 A2993 RMK A01 T01750117  RH  069%=      5-min Rain = 0
KVP1 160048Z 04011KT 18/12 A2993 RMK A01 T01750117  RH  069%=      5-min Rain = 0
KVP1 160049Z 04010KT 18/12 A2993 RMK A01 T01760117  RH  069%=      5-min Rain = 0
KVP1 160050Z 04010KT 18/12 A2993 RMK A01 T01760117  RH  069%=      5-min Rain = 0
KVP1 160051Z 04011KT 18/12 A2993 RMK A01 T01760117  RH  068%=      5-min Rain = 0
KVP1 160052Z 04010KT 18/12 A2993 RMK A01 T01770117  RH  068%=      5-min Rain = 0
KVP1 160053Z 04010KT 18/12 A2994 RMK A01 T01770117  RH  068%=      5-min Rain = 0
KVP1 160054Z 04011KT 18/12 A2994 RMK A01 T01770118  RH  068%=      5-min Rain = 0
KVP1 160055Z 04010KT 18/12 A2994 RMK A01 T01770118  RH  069%=      5-min Rain = 0
KVP1 160056Z 04011KT 18/12 A2994 RMK A01 T01770117  RH  068%=      5-min Rain = 0
KVP1 160057Z 05010KT 18/12 A2994 RMK A01 T01770118  RH  068%=      5-min Rain = 0
KVP1 160058Z 04010KT 18/12 A2994 RMK A01 T01770120  RH  069%=      5-min Rain = 0
KVP1 160059Z 04010KT 18/12 A2994 RMK A01 T01770120  RH  069%=      5-min Rain = 0
KVP1 160100Z 04010KT 18/12 A2994 RMK A01 T01770120  RH  069%=      5-min Rain = 0
KVP1 160101Z 05009KT 18/12 A2994 RMK A01 T01770120  RH  069%=      5-min Rain = 0
KVP1 160102Z 05009KT 18/12 A2994 RMK A01 T01770121  RH  070%=      5-min Rain = 0
KVP1 160103Z 05010KT 18/12 A2994 RMK A01 T01760121  RH  070%=      5-min Rain = 0
KVP1 160104Z 06009KT 18/12 A2994 RMK A01 T01770119  RH  069%=      5-min Rain = 0
KVP1 160105Z 05010KT 18/12 A2993 RMK A01 T01790118  RH  068%=      5-min Rain = 0
KVP1 160106Z 05009KT 18/12 A2993 RMK A01 T01800119  RH  067%=      5-min Rain = 0
KVP1 160107Z 06009KT 18/12 A2993 RMK A01 T01800118  RH  067%=      5-min Rain = 0
KVP1 160108Z 06008KT 18/12 A2993 RMK A01 T01810121  RH  068%=      5-min Rain = 0
KVP1 160109Z 06008KT 18/12 A2993 RMK A01 T01810122  RH  068%=      5-min Rain = 0
KVP1 160110Z 06008KT 18/12 A2993 RMK A01 T01800123  RH  069%=      5-min Rain = 0
KVP1 160111Z 06007KT 18/12 A2993 RMK A01 T01800123  RH  070%=      5-min Rain = 0
KVP1 160112Z 05007KT 18/12 A2993 RMK A01 T01790124  RH  070%=      5-min Rain = 0
KVP1 160113Z 04008KT 18/12 A2993 RMK A01 T01790124  RH  071%=      5-min Rain = 0
KVP1 160114Z 05008KT 18/12 A2992 RMK A01 T01790122  RH  069%=      5-min Rain = 0
KVP1 160115Z 05008KT 18/12 A2992 RMK A01 T01790121  RH  068%=      5-min Rain = 0
KVP1 160116Z 05008KT 18/12 A2992 RMK A01 T01800120  RH  068%=      5-min Rain = 0
KVP1 160117Z 05008KT 18/12 A2992 RMK A01 T01810119  RH  067%=      5-min Rain = 0
KVP1 160118Z 06007KT 18/12 A2991 RMK A01 T01820120  RH  067%=      5-min Rain = 0
KVP1 160119Z 06008KT 18/12 A2991 RMK A01 T01820121  RH  068%=      5-min Rain = 0
KVP1 160120Z 05010KT 18/12 A299 RMK A01 T01810122  RH  068%=      5-min Rain = 0
KVP1 160121Z 06010KT 18/12 A299 RMK A01 T01810121  RH  068%=      5-min Rain = 0
KVP1 160122Z 05009KT 18/12 A299 RMK A01 T01810121  RH  068%=      5-min Rain = 0
KVP1 160123Z 06009KT 18/12 A2989 RMK A01 T01810122  RH  068%=      5-min Rain = 0
KVP1 160124Z 06011KT 18/12 A2989 RMK A01 T01810120  RH  068%=      5-min Rain = 0
KVP1 160125Z 06010KT 18/12 A2988 RMK A01 T01820120  RH  067%=      5-min Rain = 0
KVP1 160126Z 06011KT 18/12 A2988 RMK A01 T01820119  RH  066%=      5-min Rain = 0
KVP1 160127Z 06012G17KT 18/12 A2988 RMK A01 T01830117  RH  065%=      5-min Rain = 0
KVP1 160128Z 06010KT 19/11 A2988 RMK A01 T01860113  RH  062%=      5-min Rain = 0
KVP1 160129Z 06008KT 19/12 A2988 RMK A01 T01870118  RH  064%=      5-min Rain = 0
KVP1 160130Z 07009KT 19/12 A2987 RMK A01 T01870119  RH  065%=      5-min Rain = 0
KVP1 160131Z 07009KT 19/12 A2987 RMK A01 T01860118  RH  065%=      5-min Rain = 0
KVP1 160132Z 09008KT 19/12 A2987 RMK A01 T01860115  RH  063%=      5-min Rain = 0
KVP1 160133Z 09008KT 19/12 A2987 RMK A01 T01870117  RH  063%=      5-min Rain = 0
KVP1 160134Z 08007KT 19/12 A2987 RMK A01 T01870116  RH  063%=      5-min Rain = 0
KVP1 160135Z 09006KT 19/12 A2987 RMK A01 T01870119  RH  064%=      5-min Rain = 0
KVP1 160136Z 09006KT 19/12 A2987 RMK A01 T01870120  RH  065%=      5-min Rain = 0
KVP1 160137Z 09007KT 19/12 A2986 RMK A01 T01860118  RH  065%=      5-min Rain = 0
KVP1 160138Z 09006KT 19/12 A2986 RMK A01 T01860118  RH  064%=      5-min Rain = 0
KVP1 160139Z 10004KT 19/12 A2986 RMK A01 T01870120  RH  065%=      5-min Rain = 0
KVP1 160140Z 12004KT 19/12 A2986 RMK A01 T01870119  RH  065%=      5-min Rain = 0
KVP1 160141Z 13004KT 19/12 A2986 RMK A01 T01870122  RH  066%=      5-min Rain = 0
KVP1 160142Z 13002KT 19/12 A2986 RMK A01 T01860122  RH  066%=      5-min Rain = 0
KVP1 160143Z 11002KT 19/12 A2986 RMK A01 T01850117  RH  065%=      5-min Rain = 0
KVP1 160144Z 11003KT 19/12 A2986 RMK A01 T01850117  RH  064%=      5-min Rain = 0
KVP1 160145Z 08004KT 19/12 A2986 RMK A01 T01860115  RH  063%=      5-min Rain = 0
KVP1 160146Z 09006KT 19/11 A2986 RMK A01 T01880113  RH  062%=      5-min Rain = 0
KVP1 160147Z 09007KT 19/11 A2985 RMK A01 T01890110  RH  060%=      5-min Rain = 0
KVP1 160148Z 10009KT 19/11 A2985 RMK A01 T01910113  RH  061%=      5-min Rain = 0
KVP1 160149Z 12007KT 19/12 A2985 RMK A01 T01910115  RH  061%=      5-min Rain = 0
KVP1 160150Z 17008KT 19/12 A2986 RMK A01 T01900116  RH  062%=      5-min Rain = 0
KVP1 160151Z 18009KT 19/12 A2986 RMK A01 T01890116  RH  062%=      5-min Rain = 0
KVP1 160152Z 16008KT 19/11 A2986 RMK A01 T01880113  RH  062%=      5-min Rain = 0
KVP1 160153Z 13007KT 19/11 A2985 RMK A01 T01890110  RH  060%=      5-min Rain = 0
KVP1 160154Z 12005KT 19/11 A2986 RMK A01 T01900107  RH  059%=      5-min Rain = 0
KVP1 160155Z 11005KT 19/11 A2986 RMK A01 T01920109  RH  059%=      5-min Rain = 0
KVP1 160156Z 11006KT 19/11 A2985 RMK A01 T01920113  RH  060%=      5-min Rain = 0
KVP1 160157Z 10006KT 19/12 A2986 RMK A01 T01920117  RH  062%=      5-min Rain = 0
KVP1 160158Z 11005KT 19/12 A2986 RMK A01 T01890117  RH  063%=      5-min Rain = 0
KVP1 160159Z 16005KT 19/12 A2986 RMK A01 T01880116  RH  063%=      5-min Rain = 0
KVP1 160200Z 16006KT 19/12 A2986 RMK A01 T01880115  RH  063%=      5-min Rain = 0
KVP1 160201Z 13005KT 19/12 A2986 RMK A01 T01880118  RH  064%=      5-min Rain = 0
KVP1 160202Z 09006KT 19/12 A2986 RMK A01 T01870115  RH  063%=      5-min Rain = 0
KVP1 160203Z 08009KT 19/11 A2986 RMK A01 T01890108  RH  059%=      5-min Rain = 0
KVP1 160204Z 08008KT 19/11 A2985 RMK A01 T01920111  RH  060%=      5-min Rain = 0
KVP1 160205Z 08006KT 19/11 A2986 RMK A01 T01920112  RH  060%=      5-min Rain = 0
KVP1 160206Z 07006KT 19/11 A2986 RMK A01 T01920112  RH  060%=      5-min Rain = 0
KVP1 160207Z 08008KT 19/11 A2986 RMK A01 T01920109  RH  058%=      5-min Rain = 0
KVP1 160208Z 07007KT 20/10 A2985 RMK A01 T01950104  RH  056%=      5-min Rain = 0
KVP1 160209Z 08008KT 20/11 A2985 RMK A01 T01960114  RH  059%=      5-min Rain = 0
KVP1 160210Z 08010KT 19/12 A2985 RMK A01 T01940116  RH  060%=      5-min Rain = 0
KVP1 160211Z 07010KT 19/11 A2985 RMK A01 T01920113  RH  060%=      5-min Rain = 0
KVP1 160212Z 06010KT 19/11 A2984 RMK A01 T01920113  RH  060%=      5-min Rain = 0
KVP1 160213Z 05011KT 19/11 A2984 RMK A01 T01910114  RH  061%=      5-min Rain = 0
KVP1 160214Z 06011KT 19/11 A2983 RMK A01 T01900114  RH  061%=      5-min Rain = 0
KVP1 160215Z 06011KT 19/11 A2982 RMK A01 T01890114  RH  062%=      5-min Rain = 0
KVP1 160216Z 06009KT 19/12 A2982 RMK A01 T01880116  RH  063%=      5-min Rain = 0
KVP1 160217Z 06013KT 19/12 A2982 RMK A01 T01870118  RH  064%=      5-min Rain = 0
KVP1 160218Z 06018KT 19/11 A2981 RMK A01 T01860112  RH  062%=      5-min Rain = 0
KVP1 160219Z 07016KT 19/11 A2981 RMK A01 T01890113  RH  061%=      5-min Rain = 0
KVP1 160220Z 07014KT 19/12 A2982 RMK A01 T01890116  RH  063%=      5-min Rain = 0
KVP1 160221Z 08010KT 19/12 A2982 RMK A01 T01880115  RH  063%=      5-min Rain = 0
KVP1 160222Z 10008KT 19/11 A2983 RMK A01 T01870114  RH  062%=      5-min Rain = 0
KVP1 160223Z 12008KT 19/12 A2983 RMK A01 T01870117  RH  064%=      5-min Rain = 0
KVP1 160224Z 14010KT 19/12 A2983 RMK A01 T01870115  RH  063%=      5-min Rain = 0
KVP1 160225Z 15012KT 19/11 A2983 RMK A01 T01870113  RH  062%=      5-min Rain = 0
KVP1 160226Z 14011KT 19/12 A2983 RMK A01 T01860116  RH  064%=      5-min Rain = 0
KVP1 160227Z 13010KT 19/11 A2983 RMK A01 T01850113  RH  063%=      5-min Rain = 0
KVP1 160228Z 11010KT 19/11 A2983 RMK A01 T01860111  RH  061%=      5-min Rain = 0
KVP1 160229Z 10011KT 19/11 A2983 RMK A01 T01890108  RH  059%=      5-min Rain = 0
KVP1 160230Z 10011KT 19/11 A2983 RMK A01 T01910108  RH  058%=      5-min Rain = 0
KVP1 160231Z 09010KT 19/11 A2984 RMK A01 T01920109  RH  059%=      5-min Rain = 0
KVP1 160232Z 08010KT 19/11 A2984 RMK A01 T01920111  RH  059%=      5-min Rain = 0
KVP1 160233Z 08012KT 19/11 A2984 RMK A01 T01920110  RH  059%=      5-min Rain = 0
KVP1 160234Z 08013KT 19/11 A2983 RMK A01 T01920109  RH  059%=      5-min Rain = 0
KVP1 160235Z 08014KT 19/11 A2984 RMK A01 T01920109  RH  058%=      5-min Rain = 0
KVP1 160236Z 09014KT 19/11 A2984 RMK A01 T01920108  RH  058%=      5-min Rain = 0
KVP1 160237Z 08013KT 19/11 A2984 RMK A01 T01930107  RH  058%=      5-min Rain = 0
KVP1 160238Z 09013KT 19/11 A2984 RMK A01 T01940107  RH  057%=      5-min Rain = 0
KVP1 160239Z 08013KT 19/11 A2984 RMK A01 T01940107  RH  057%=      5-min Rain = 0
KVP1 160240Z 09013KT 19/11 A2984 RMK A01 T01940109  RH  058%=      5-min Rain = 0
KVP1 160241Z 09014KT 19/11 A2984 RMK A01 T01930108  RH  058%=      5-min Rain = 0
KVP1 160242Z 09013KT 19/11 A2984 RMK A01 T01940106  RH  057%=      5-min Rain = 0
KVP1 160243Z 09013KT 20/11 A2984 RMK A01 T01950108  RH  057%=      5-min Rain = 0
KVP1 160244Z 09012KT 20/11 A2984 RMK A01 T01950108  RH  057%=      5-min Rain = 0
KVP1 160245Z 09012KT 19/11 A2984 RMK A01 T01940109  RH  058%=      5-min Rain = 0
KVP1 160246Z 09012KT 19/11 A2984 RMK A01 T01930109  RH  058%=      5-min Rain = 0
KVP1 160247Z 10012KT 19/11 A2983 RMK A01 T01920111  RH  059%=      5-min Rain = 0
KVP1 160248Z 09012KT 19/11 A2983 RMK A01 T01910111  RH  060%=      5-min Rain = 0
KVP1 160249Z 09012KT 19/11 A2983 RMK A01 T01900110  RH  059%=      5-min Rain = 0
KVP1 160250Z 09011KT 19/11 A2983 RMK A01 T01900108  RH  059%=      5-min Rain = 0
KVP1 160251Z 09011KT 19/11 A2984 RMK A01 T01910110  RH  059%=      5-min Rain = 0
KVP1 160252Z 10010KT 19/11 A2984 RMK A01 T01900111  RH  060%=      5-min Rain = 0
KVP1 160253Z 09011KT 19/11 A2984 RMK A01 T01890111  RH  060%=      5-min Rain = 0
KVP1 160254Z 09011KT 19/11 A2984 RMK A01 T01890111  RH  060%=      5-min Rain = 0
KVP1 160255Z 09011KT 19/11 A2984 RMK A01 T01890111  RH  060%=      5-min Rain = 0
KVP1 160256Z 09010KT 19/11 A2984 RMK A01 T01880109  RH  060%=      5-min Rain = 0
KVP1 160257Z 09010KT 19/11 A2984 RMK A01 T01880111  RH  061%=      5-min Rain = 0
KVP1 160258Z 09010KT 19/11 A2984 RMK A01 T01880112  RH  061%=      5-min Rain = 0
KVP1 160259Z 09011KT 19/11 A2985 RMK A01 T01880113  RH  062%=      5-min Rain = 0
KVP1 160300Z 09011KT 19/11 A2985 RMK A01 T01870111  RH  061%=      5-min Rain = 0
KVP1 160301Z 09011KT 19/11 A2985 RMK A01 T01880111  RH  061%=      5-min Rain = 0
KVP1 160302Z 09010KT 19/11 A2985 RMK A01 T01880112  RH  061%=      5-min Rain = 0
KVP1 160303Z 09011KT 19/11 A2985 RMK A01 T01880113  RH  062%=      5-min Rain = 0
KVP1 160304Z 08010KT 19/11 A2985 RMK A01 T01870113  RH  062%=      5-min Rain = 0
KVP1 160305Z 08010KT 19/11 A2985 RMK A01 T01870113  RH  062%=      5-min Rain = 0
KVP1 160306Z 08011KT 19/11 A2985 RMK A01 T01870112  RH  062%=      5-min Rain = 0
KVP1 160307Z 08011KT 19/11 A2985 RMK A01 T01880111  RH  061%=      5-min Rain = 0
KVP1 160308Z 08011KT 19/11 A2986 RMK A01 T01880112  RH  061%=      5-min Rain = 0
KVP1 160309Z 08011KT 19/11 A2985 RMK A01 T01880112  RH  061%=      5-min Rain = 0
KVP1 160310Z 08011KT 19/11 A2985 RMK A01 T01880113  RH  062%=      5-min Rain = 0
KVP1 160311Z 08010KT 19/11 A2985 RMK A01 T01880113  RH  062%=      5-min Rain = 0
KVP1 160312Z 09010KT 19/11 A2985 RMK A01 T01880114  RH  062%=      5-min Rain = 0
KVP1 160313Z 09011KT 19/12 A2985 RMK A01 T01860116  RH  063%=      5-min Rain = 0
KVP1 160314Z 09012KT 19/12 A2985 RMK A01 T01850115  RH  064%=      5-min Rain = 0
KVP1 160315Z 09011KT 19/12 A2985 RMK A01 T01850115  RH  063%=      5-min Rain = 0
KVP1 160316Z 09010KT 19/11 A2985 RMK A01 T01850113  RH  063%=      5-min Rain = 0
KVP1 160317Z 09010KT 19/11 A2985 RMK A01 T01860114  RH  063%=      5-min Rain = 0
KVP1 160318Z 09010KT 19/12 A2985 RMK A01 T01860115  RH  063%=      5-min Rain = 0
KVP1 160319Z 09010KT 19/12 A2985 RMK A01 T01850115  RH  063%=      5-min Rain = 0
KVP1 160320Z 09009KT 19/12 A2986 RMK A01 T01850115  RH  063%=      5-min Rain = 0
KVP1 160321Z 09008KT 19/11 A2986 RMK A01 T01850114  RH  063%=      5-min Rain = 0
KVP1 160322Z 09008KT 19/12 A2986 RMK A01 T01850116  RH  064%=      5-min Rain = 0
KVP1 160323Z 07007KT 18/11 A2987 RMK A01 T01840114  RH  064%=      5-min Rain = 0
KVP1 160324Z 06007KT 19/11 A2987 RMK A01 T01850113  RH  063%=      5-min Rain = 0
KVP1 160325Z 05007KT 19/11 A2988 RMK A01 T01850114  RH  063%=      5-min Rain = 0
KVP1 160326Z 02007KT 19/11 A2989 RMK A01 T01850112  RH  062%=      5-min Rain = 0
KVP1 160327Z 01007KT 19/11 A2989 RMK A01 T01860111  RH  062%=      5-min Rain = 0
KVP1 160328Z 00008KT 19/11 A299 RMK A01 T01870111  RH  062%=      5-min Rain = 0
KVP1 160329Z 35009KT 19/11 A2991 RMK A01 T01870112  RH  062%=      5-min Rain = 0
KVP1 160330Z 34011KT 19/12 A2992 RMK A01 T01860116  RH  063%=      5-min Rain = 0
KVP1 160331Z 34011KT 18/12 A2992 RMK A01 T01840118  RH  065%=      5-min Rain = 0
KVP1 160332Z 33008KT 18/12 A2992 RMK A01 T01810118  RH  067%=      5-min Rain = 0
KVP1 160333Z 33006KT 18/12 A2991 RMK A01 T01800119  RH  067%=      5-min Rain = 0
KVP1 160334Z 33004KT 18/12 A299 RMK A01 T01790119  RH  068%=      5-min Rain = 0
KVP1 160335Z 32006KT 18/12 A299 RMK A01 T01780119  RH  068%=      5-min Rain = 0
KVP1 160336Z 32006KT 18/12 A299 RMK A01 T01770120  RH  069%=      5-min Rain = 0
KVP1 160337Z 32010KT 18/12 A2991 RMK A01 T01750121  RH  070%=      5-min Rain = 0
KVP1 160338Z 32015KT 17/12 A2992 RMK A01 T01730121  RH  072%=      5-min Rain = 0
KVP1 160339Z 32013KT 17/12 A2992 RMK A01 T01720122  RH  072%=      5-min Rain = 0
KVP1 160340Z 33010KT 17/12 A2992 RMK A01 T01720121  RH  072%=      5-min Rain = 0
KVP1 160341Z 33011KT 17/12 A2992 RMK A01 T01720121  RH  072%=      5-min Rain = 0
KVP1 160342Z 34012KT 17/12 A2992 RMK A01 T01730119  RH  070%=      5-min Rain = 0
KVP1 160343Z 34010KT 18/12 A2992 RMK A01 T01750117  RH  069%=      5-min Rain = 0
KVP1 160344Z 34009KT 18/11 A2992 RMK A01 T01790114  RH  066%=      5-min Rain = 0
KVP1 160345Z 34007KT 18/11 A2992 RMK A01 T01820114  RH  065%=      5-min Rain = 0
KVP1 160346Z 34006KT 18/12 A2992 RMK A01 T01830115  RH  064%=      5-min Rain = 0
KVP1 160347Z 33008KT 18/12 A2992 RMK A01 T01830117  RH  065%=      5-min Rain = 0
KVP1 160348Z 33009KT 18/12 A2992 RMK A01 T01820117  RH  066%=      5-min Rain = 0
KVP1 160349Z 33009KT 18/12 A2992 RMK A01 T01810117  RH  066%=      5-min Rain = 0
KVP1 160350Z 34008KT 18/12 A2992 RMK A01 T01800117  RH  066%=      5-min Rain = 0
KVP1 160351Z 34008KT 18/12 A2992 RMK A01 T01800117  RH  067%=      5-min Rain = 0
KVP1 160352Z 34008KT 18/12 A2992 RMK A01 T01790118  RH  067%=      5-min Rain = 0
KVP1 160353Z 34008KT 18/12 A2992 RMK A01 T01780117  RH  067%=      5-min Rain = 0
KVP1 160354Z 35009KT 18/12 A2992 RMK A01 T01790115  RH  066%=      5-min Rain = 0
KVP1 160355Z 35009KT 18/11 A2992 RMK A01 T01810114  RH  065%=      5-min Rain = 0
KVP1 160356Z 35010KT 18/11 A2992 RMK A01 T01820114  RH  064%=      5-min Rain = 0
KVP1 160357Z 35008KT 18/11 A2991 RMK A01 T01830112  RH  063%=      5-min Rain = 0
KVP1 160358Z 36007KT 19/11 A2991 RMK A01 T01850110  RH  062%=      5-min Rain = 0
KVP1 160359Z 35007KT 19/11 A2991 RMK A01 T01860110  RH  061%=      5-min Rain = 0
KVP1 160400Z 36009KT 19/11 A2991 RMK A01 T01880109  RH  060%=      5-min Rain = 0
KVP1 160401Z 36009KT 19/11 A2991 RMK A01 T01890108  RH  060%=      5-min Rain = 0
KVP1 160402Z 36010KT 19/11 A2992 RMK A01 T01900109  RH  059%=      5-min Rain = 0
KVP1 160403Z 00009KT 19/11 A2992 RMK A01 T01910109  RH  059%=      5-min Rain = 0
KVP1 160404Z 00008KT 19/11 A2992 RMK A01 T01910109  RH  059%=      5-min Rain = 0
KVP1 160405Z 01008KT 19/11 A2991 RMK A01 T01910107  RH  058%=      5-min Rain = 0
KVP1 160406Z 01009KT 19/10 A2991 RMK A01 T01930103  RH  056%=      5-min Rain = 0
KVP1 160407Z 00008KT 20/10 A2991 RMK A01 T01960104  RH  055%=      5-min Rain = 0
KVP1 160408Z 00007KT 20/11 A2991 RMK A01 T01970106  RH  056%=      5-min Rain = 0
KVP1 160409Z 36008KT 20/11 A2992 RMK A01 T01960108  RH  057%=      5-min Rain = 0
KVP1 160410Z 35010KT 19/11 A2992 RMK A01 T01940111  RH  058%=      5-min Rain = 0
KVP1 160411Z 35008KT 19/11 A2992 RMK A01 T01940113  RH  059%=      5-min Rain = 0
KVP1 160412Z 34008KT 19/11 A2993 RMK A01 T01940114  RH  060%=      5-min Rain = 0
KVP1 160413Z 35008G14KT 19/12 A2993 RMK A01 T01940117  RH  061%=      5-min Rain = 0
KVP1 160414Z 35007KT 19/12 A2993 RMK A01 T01940117  RH  061%=      5-min Rain = 0
KVP1 160415Z 35009KT 19/12 A2993 RMK A01 T01930117  RH  061%=      5-min Rain = 0
KVP1 160416Z 35009KT 19/12 A2993 RMK A01 T01930118  RH  061%=      5-min Rain = 0
KVP1 160417Z 35011KT 19/12 A2993 RMK A01 T01930119  RH  062%=      5-min Rain = 0
KVP1 160418Z 00011KT 19/12 A2993 RMK A01 T01930117  RH  061%=      5-min Rain = 0
KVP1 160419Z 00008KT 19/12 A2993 RMK A01 T01930117  RH  061%=      5-min Rain = 0
KVP1 160420Z 00008KT 19/12 A2993 RMK A01 T01930118  RH  062%=      5-min Rain = 0
KVP1 160421Z 01006KT 19/12 A2993 RMK A01 T01930117  RH  062%=      5-min Rain = 0
KVP1 160422Z 01006KT 19/12 A2993 RMK A01 T01920118  RH  062%=      5-min Rain = 0
KVP1 160423Z 01006KT 19/12 A2993 RMK A01 T01910118  RH  063%=      5-min Rain = 0
KVP1 160424Z 02008KT 19/12 A2993 RMK A01 T01900117  RH  062%=      5-min Rain = 0
KVP1 160425Z 01007G13KT 19/12 A2993 RMK A01 T01900115  RH  062%=      5-min Rain = 0
KVP1 160426Z 01009KT 19/11 A2993 RMK A01 T01900114  RH  061%=      5-min Rain = 0
KVP1 160427Z 01007KT 19/11 A2993 RMK A01 T01910113  RH  061%=      5-min Rain = 0
KVP1 160428Z 36008KT 19/11 A2993 RMK A01 T01910113  RH  061%=      5-min Rain = 0
KVP1 160429Z 35008KT 19/11 A2993 RMK A01 T01910113  RH  061%=      5-min Rain = 0
KVP1 160430Z 00009KT 19/11 A2992 RMK A01 T01900113  RH  061%=      5-min Rain = 0
KVP1 160431Z 00007KT 19/11 A2992 RMK A01 T01900113  RH  061%=      5-min Rain = 0
KVP1 160432Z 36007KT 19/11 A2992 RMK A01 T01890114  RH  061%=      5-min Rain = 0
KVP1 160433Z 35008KT 19/11 A2992 RMK A01 T01880114  RH  062%=      5-min Rain = 0
KVP1 160434Z 35008KT 19/12 A2993 RMK A01 T01870115  RH  063%=      5-min Rain = 0
KVP1 160435Z 35008KT 19/12 A2992 RMK A01 T01860116  RH  064%=      5-min Rain = 0
KVP1 160436Z 35007KT 19/12 A2992 RMK A01 T01850116  RH  064%=      5-min Rain = 0
KVP1 160437Z 35007KT 18/12 A2992 RMK A01 T01840116  RH  064%=      5-min Rain = 0
KVP1 160438Z 36006KT 18/12 A2992 RMK A01 T01840116  RH  065%=      5-min Rain = 0
KVP1 160439Z 00006KT 18/12 A2991 RMK A01 T01840116  RH  065%=      5-min Rain = 0
KVP1 160440Z 35006KT 18/12 A2991 RMK A01 T01830116  RH  065%=      5-min Rain = 0
KVP1 160441Z 35006KT 18/12 A2991 RMK A01 T01840116  RH  065%=      5-min Rain = 0
KVP1 160442Z 36006KT 18/12 A2991 RMK A01 T01830115  RH  064%=      5-min Rain = 0
KVP1 160443Z 36005KT 18/12 A2992 RMK A01 T01830116  RH  065%=      5-min Rain = 0
KVP1 160444Z 00005KT 18/12 A2992 RMK A01 T01830116  RH  065%=      5-min Rain = 0
KVP1 160445Z 01007KT 18/12 A2992 RMK A01 T01820116  RH  065%=      5-min Rain = 0
KVP1 160446Z 00008KT 18/12 A2992 RMK A01 T01830116  RH  065%=      5-min Rain = 0
KVP1 160447Z 00007KT 18/11 A2992 RMK A01 T01830113  RH  064%=      5-min Rain = 0
KVP1 160448Z 01006KT 18/11 A2993 RMK A01 T01840113  RH  063%=      5-min Rain = 0
KVP1 160449Z 01006KT 19/11 A2993 RMK A01 T01860112  RH  062%=      5-min Rain = 0
KVP1 160450Z 02006KT 19/11 A2993 RMK A01 T01860112  RH  062%=      5-min Rain = 0
KVP1 160451Z 02005KT 19/11 A2993 RMK A01 T01870111  RH  061%=      5-min Rain = 0
KVP1 160452Z 01004KT 19/11 A2993 RMK A01 T01870111  RH  061%=      5-min Rain = 0
KVP1 160453Z 01005KT 19/11 A2993 RMK A01 T01870110  RH  061%=      5-min Rain = 0
KVP1 160454Z 01005KT 19/11 A2992 RMK A01 T01860111  RH  062%=      5-min Rain = 0
KVP1 160455Z 02005KT 19/11 A2992 RMK A01 T01860110  RH  061%=      5-min Rain = 0
KVP1 160456Z 01005KT 19/11 A2992 RMK A01 T01860110  RH  061%=      5-min Rain = 0
KVP1 160457Z 02005KT 19/11 A2992 RMK A01 T01860111  RH  061%=      5-min Rain = 0
KVP1 160458Z 01006KT 19/11 A2992 RMK A01 T01850109  RH  061%=      5-min Rain = 0
KVP1 160459Z 02005KT 19/11 A2992 RMK A01 T01850110  RH  061%=      5-min Rain = 0

Page generated in 0.1219 seconds.